<?xml version="1.0" encoding="UTF-8" standalone="no" ?>
<gpx xmlns="http://www.topografix.com/GPX/1/1" xmlns:xsi="http://www.w3.org/2001/XMLSchema-instance" xsi:schemaLocation="http://www.topografix.com/GPX/1/1 http://www.topografix.com/GPX/1/1/gpx.xsd" version="1.1" creator="VisuGPX - https://www.visugpx.com">
  <metadata>
    <name>06-V-Saint Cézaire</name>
    <desc><![CDATA[83-V-Saint Cézaire : St Saturnin - pont des Tuves - la Siagne
Dimanche 1-4-2011
]]></desc>
  </metadata>
  <trk>
    <name><![CDATA[2011-04-01-st Cezaire avec cascade]]></name>
    <trkseg>
      <trkpt lat="43.64799" lon="6.79429">
        <ele>483.971375</ele>
        <time>2011-04-01T07:44:03Z</time>
      </trkpt>
      <trkpt lat="43.64799" lon="6.79429">
        <ele>484.281799</ele>
        <time>2011-04-01T07:44:04Z</time>
      </trkpt>
      <trkpt lat="43.64807" lon="6.79424">
        <ele>485.700012</ele>
        <time>2011-04-01T07:45:17Z</time>
      </trkpt>
      <trkpt lat="43.64823" lon="6.79417">
        <ele>484.600006</ele>
        <time>2011-04-01T07:45:33Z</time>
      </trkpt>
      <trkpt lat="43.64814" lon="6.79418">
        <ele>485</ele>
        <time>2011-04-01T07:46:41Z</time>
      </trkpt>
      <trkpt lat="43.64813" lon="6.79419">
        <ele>485.299988</ele>
        <time>2011-04-01T07:46:42Z</time>
      </trkpt>
      <trkpt lat="43.648" lon="6.79432">
        <ele>486.600006</ele>
        <time>2011-04-01T07:47:00Z</time>
      </trkpt>
      <trkpt lat="43.64794" lon="6.7944">
        <ele>486.5</ele>
        <time>2011-04-01T07:47:08Z</time>
      </trkpt>
      <trkpt lat="43.64787" lon="6.79448">
        <ele>486.899994</ele>
        <time>2011-04-01T07:47:21Z</time>
      </trkpt>
      <trkpt lat="43.64781" lon="6.79457">
        <ele>486.899994</ele>
        <time>2011-04-01T07:48:31Z</time>
      </trkpt>
      <trkpt lat="43.64781" lon="6.79457">
        <ele>486.799988</ele>
        <time>2011-04-01T07:48:32Z</time>
      </trkpt>
      <trkpt lat="43.64782" lon="6.79464">
        <ele>487</ele>
        <time>2011-04-01T07:49:23Z</time>
      </trkpt>
      <trkpt lat="43.64775" lon="6.7947">
        <ele>486.5</ele>
        <time>2011-04-01T07:49:37Z</time>
      </trkpt>
      <trkpt lat="43.64774" lon="6.79471">
        <ele>486.5</ele>
        <time>2011-04-01T07:49:38Z</time>
      </trkpt>
      <trkpt lat="43.64784" lon="6.79459">
        <ele>487.100006</ele>
        <time>2011-04-01T07:50:26Z</time>
      </trkpt>
      <trkpt lat="43.64778" lon="6.79451">
        <ele>486.899994</ele>
        <time>2011-04-01T07:50:38Z</time>
      </trkpt>
      <trkpt lat="43.64777" lon="6.7945">
        <ele>486.799988</ele>
        <time>2011-04-01T07:50:39Z</time>
      </trkpt>
      <trkpt lat="43.64763" lon="6.79462">
        <ele>486.200012</ele>
        <time>2011-04-01T07:50:58Z</time>
      </trkpt>
      <trkpt lat="43.64758" lon="6.79472">
        <ele>485.600006</ele>
        <time>2011-04-01T07:51:06Z</time>
      </trkpt>
      <trkpt lat="43.64752" lon="6.7948">
        <ele>485.399994</ele>
        <time>2011-04-01T07:51:14Z</time>
      </trkpt>
      <trkpt lat="43.64747" lon="6.7949">
        <ele>484.399994</ele>
        <time>2011-04-01T07:51:22Z</time>
      </trkpt>
      <trkpt lat="43.64743" lon="6.795">
        <ele>484.100006</ele>
        <time>2011-04-01T07:51:29Z</time>
      </trkpt>
      <trkpt lat="43.64738" lon="6.7951">
        <ele>483</ele>
        <time>2011-04-01T07:51:37Z</time>
      </trkpt>
      <trkpt lat="43.64735" lon="6.79521">
        <ele>482.299988</ele>
        <time>2011-04-01T07:51:45Z</time>
      </trkpt>
      <trkpt lat="43.64735" lon="6.79522">
        <ele>482.299988</ele>
        <time>2011-04-01T07:51:46Z</time>
      </trkpt>
      <trkpt lat="43.64726" lon="6.79541">
        <ele>480.600006</ele>
        <time>2011-04-01T07:52:02Z</time>
      </trkpt>
      <trkpt lat="43.64723" lon="6.79552">
        <ele>479.5</ele>
        <time>2011-04-01T07:52:10Z</time>
      </trkpt>
      <trkpt lat="43.64719" lon="6.79562">
        <ele>479.200012</ele>
        <time>2011-04-01T07:52:18Z</time>
      </trkpt>
      <trkpt lat="43.64714" lon="6.79571">
        <ele>478.100006</ele>
        <time>2011-04-01T07:52:26Z</time>
      </trkpt>
      <trkpt lat="43.64708" lon="6.7958">
        <ele>477.5</ele>
        <time>2011-04-01T07:52:34Z</time>
      </trkpt>
      <trkpt lat="43.64702" lon="6.79588">
        <ele>476.799988</ele>
        <time>2011-04-01T07:52:42Z</time>
      </trkpt>
      <trkpt lat="43.64696" lon="6.79596">
        <ele>476.700012</ele>
        <time>2011-04-01T07:52:50Z</time>
      </trkpt>
      <trkpt lat="43.64695" lon="6.79597">
        <ele>476.700012</ele>
        <time>2011-04-01T07:52:51Z</time>
      </trkpt>
      <trkpt lat="43.64684" lon="6.79612">
        <ele>475.600006</ele>
        <time>2011-04-01T07:53:06Z</time>
      </trkpt>
      <trkpt lat="43.64678" lon="6.79621">
        <ele>475.399994</ele>
        <time>2011-04-01T07:53:15Z</time>
      </trkpt>
      <trkpt lat="43.64672" lon="6.7963">
        <ele>475.5</ele>
        <time>2011-04-01T07:53:24Z</time>
      </trkpt>
      <trkpt lat="43.64666" lon="6.79638">
        <ele>475.700012</ele>
        <time>2011-04-01T07:53:31Z</time>
      </trkpt>
      <trkpt lat="43.64661" lon="6.79646">
        <ele>475.600006</ele>
        <time>2011-04-01T07:53:39Z</time>
      </trkpt>
      <trkpt lat="43.64653" lon="6.79652">
        <ele>475.700012</ele>
        <time>2011-04-01T07:53:48Z</time>
      </trkpt>
      <trkpt lat="43.64645" lon="6.79656">
        <ele>476</ele>
        <time>2011-04-01T07:53:55Z</time>
      </trkpt>
      <trkpt lat="43.64644" lon="6.79657">
        <ele>476.100006</ele>
        <time>2011-04-01T07:53:56Z</time>
      </trkpt>
      <trkpt lat="43.64629" lon="6.79664">
        <ele>476.100006</ele>
        <time>2011-04-01T07:54:09Z</time>
      </trkpt>
      <trkpt lat="43.64622" lon="6.7967">
        <ele>476.600006</ele>
        <time>2011-04-01T07:54:16Z</time>
      </trkpt>
      <trkpt lat="43.64616" lon="6.79678">
        <ele>476.5</ele>
        <time>2011-04-01T07:54:24Z</time>
      </trkpt>
      <trkpt lat="43.6461" lon="6.79687">
        <ele>475.899994</ele>
        <time>2011-04-01T07:54:32Z</time>
      </trkpt>
      <trkpt lat="43.64605" lon="6.79696">
        <ele>475.600006</ele>
        <time>2011-04-01T07:54:40Z</time>
      </trkpt>
      <trkpt lat="43.646" lon="6.79706">
        <ele>474.700012</ele>
        <time>2011-04-01T07:54:49Z</time>
      </trkpt>
      <trkpt lat="43.64594" lon="6.79714">
        <ele>473.799988</ele>
        <time>2011-04-01T07:54:57Z</time>
      </trkpt>
      <trkpt lat="43.64594" lon="6.79716">
        <ele>473.5</ele>
        <time>2011-04-01T07:54:58Z</time>
      </trkpt>
      <trkpt lat="43.64585" lon="6.79733">
        <ele>473.200012</ele>
        <time>2011-04-01T07:55:11Z</time>
      </trkpt>
      <trkpt lat="43.64581" lon="6.79742">
        <ele>472.600006</ele>
        <time>2011-04-01T07:55:18Z</time>
      </trkpt>
      <trkpt lat="43.64577" lon="6.79753">
        <ele>472.299988</ele>
        <time>2011-04-01T07:55:25Z</time>
      </trkpt>
      <trkpt lat="43.64575" lon="6.79763">
        <ele>473.5</ele>
        <time>2011-04-01T07:55:32Z</time>
      </trkpt>
      <trkpt lat="43.64572" lon="6.79775">
        <ele>472.799988</ele>
        <time>2011-04-01T07:55:40Z</time>
      </trkpt>
      <trkpt lat="43.6457" lon="6.79786">
        <ele>473.200012</ele>
        <time>2011-04-01T07:55:47Z</time>
      </trkpt>
      <trkpt lat="43.64568" lon="6.79797">
        <ele>473</ele>
        <time>2011-04-01T07:55:54Z</time>
      </trkpt>
      <trkpt lat="43.64567" lon="6.79808">
        <ele>472.799988</ele>
        <time>2011-04-01T07:56:01Z</time>
      </trkpt>
      <trkpt lat="43.64567" lon="6.79809">
        <ele>472.799988</ele>
        <time>2011-04-01T07:56:02Z</time>
      </trkpt>
      <trkpt lat="43.64556" lon="6.79822">
        <ele>472.5</ele>
        <time>2011-04-01T07:56:17Z</time>
      </trkpt>
      <trkpt lat="43.64549" lon="6.7982">
        <ele>473.399994</ele>
        <time>2011-04-01T07:56:24Z</time>
      </trkpt>
      <trkpt lat="43.6454" lon="6.79819">
        <ele>473.299988</ele>
        <time>2011-04-01T07:56:31Z</time>
      </trkpt>
      <trkpt lat="43.64532" lon="6.79819">
        <ele>473.299988</ele>
        <time>2011-04-01T07:56:38Z</time>
      </trkpt>
      <trkpt lat="43.64524" lon="6.79821">
        <ele>473.299988</ele>
        <time>2011-04-01T07:56:46Z</time>
      </trkpt>
      <trkpt lat="43.64515" lon="6.79821">
        <ele>473.799988</ele>
        <time>2011-04-01T07:56:55Z</time>
      </trkpt>
      <trkpt lat="43.64506" lon="6.79821">
        <ele>474.299988</ele>
        <time>2011-04-01T07:57:02Z</time>
      </trkpt>
      <trkpt lat="43.64505" lon="6.79821">
        <ele>474.200012</ele>
        <time>2011-04-01T07:57:03Z</time>
      </trkpt>
      <trkpt lat="43.64489" lon="6.79819">
        <ele>473.600006</ele>
        <time>2011-04-01T07:57:16Z</time>
      </trkpt>
      <trkpt lat="43.6448" lon="6.7982">
        <ele>473</ele>
        <time>2011-04-01T07:57:23Z</time>
      </trkpt>
      <trkpt lat="43.64472" lon="6.7982">
        <ele>473.600006</ele>
        <time>2011-04-01T07:57:30Z</time>
      </trkpt>
      <trkpt lat="43.64463" lon="6.7982">
        <ele>473.100006</ele>
        <time>2011-04-01T07:57:38Z</time>
      </trkpt>
      <trkpt lat="43.64454" lon="6.79818">
        <ele>473.100006</ele>
        <time>2011-04-01T07:57:45Z</time>
      </trkpt>
      <trkpt lat="43.64446" lon="6.79814">
        <ele>472.799988</ele>
        <time>2011-04-01T07:57:52Z</time>
      </trkpt>
      <trkpt lat="43.64439" lon="6.79809">
        <ele>472.299988</ele>
        <time>2011-04-01T07:57:59Z</time>
      </trkpt>
      <trkpt lat="43.64432" lon="6.79804">
        <ele>471.5</ele>
        <time>2011-04-01T07:58:06Z</time>
      </trkpt>
      <trkpt lat="43.64431" lon="6.79804">
        <ele>471.399994</ele>
        <time>2011-04-01T07:58:07Z</time>
      </trkpt>
      <trkpt lat="43.64415" lon="6.79801">
        <ele>470.600006</ele>
        <time>2011-04-01T07:58:21Z</time>
      </trkpt>
      <trkpt lat="43.64407" lon="6.79804">
        <ele>470.700012</ele>
        <time>2011-04-01T07:58:30Z</time>
      </trkpt>
      <trkpt lat="43.64399" lon="6.79808">
        <ele>471</ele>
        <time>2011-04-01T07:58:38Z</time>
      </trkpt>
      <trkpt lat="43.6439" lon="6.79813">
        <ele>471.100006</ele>
        <time>2011-04-01T07:58:47Z</time>
      </trkpt>
      <trkpt lat="43.64383" lon="6.79815">
        <ele>471.399994</ele>
        <time>2011-04-01T07:58:54Z</time>
      </trkpt>
      <trkpt lat="43.64375" lon="6.79818">
        <ele>471.799988</ele>
        <time>2011-04-01T07:59:01Z</time>
      </trkpt>
      <trkpt lat="43.64367" lon="6.79824">
        <ele>472.200012</ele>
        <time>2011-04-01T07:59:09Z</time>
      </trkpt>
      <trkpt lat="43.64366" lon="6.79825">
        <ele>471.899994</ele>
        <time>2011-04-01T07:59:10Z</time>
      </trkpt>
      <trkpt lat="43.64356" lon="6.79841">
        <ele>471.200012</ele>
        <time>2011-04-01T07:59:23Z</time>
      </trkpt>
      <trkpt lat="43.64351" lon="6.79852">
        <ele>470.799988</ele>
        <time>2011-04-01T07:59:30Z</time>
      </trkpt>
      <trkpt lat="43.64346" lon="6.79862">
        <ele>470.299988</ele>
        <time>2011-04-01T07:59:37Z</time>
      </trkpt>
      <trkpt lat="43.64341" lon="6.79872">
        <ele>469.600006</ele>
        <time>2011-04-01T07:59:44Z</time>
      </trkpt>
      <trkpt lat="43.64336" lon="6.79881">
        <ele>469.299988</ele>
        <time>2011-04-01T07:59:52Z</time>
      </trkpt>
      <trkpt lat="43.6433" lon="6.79889">
        <ele>469.100006</ele>
        <time>2011-04-01T07:59:59Z</time>
      </trkpt>
      <trkpt lat="43.64324" lon="6.79897">
        <ele>468.5</ele>
        <time>2011-04-01T08:00:07Z</time>
      </trkpt>
      <trkpt lat="43.64316" lon="6.79901">
        <ele>467.399994</ele>
        <time>2011-04-01T08:00:14Z</time>
      </trkpt>
      <trkpt lat="43.64314" lon="6.79902">
        <ele>467.399994</ele>
        <time>2011-04-01T08:00:15Z</time>
      </trkpt>
      <trkpt lat="43.64299" lon="6.79908">
        <ele>466.299988</ele>
        <time>2011-04-01T08:00:28Z</time>
      </trkpt>
      <trkpt lat="43.64291" lon="6.79912">
        <ele>465.899994</ele>
        <time>2011-04-01T08:00:35Z</time>
      </trkpt>
      <trkpt lat="43.64283" lon="6.79913">
        <ele>464.700012</ele>
        <time>2011-04-01T08:00:42Z</time>
      </trkpt>
      <trkpt lat="43.64275" lon="6.79914">
        <ele>464</ele>
        <time>2011-04-01T08:00:49Z</time>
      </trkpt>
      <trkpt lat="43.64266" lon="6.79915">
        <ele>463.299988</ele>
        <time>2011-04-01T08:00:57Z</time>
      </trkpt>
      <trkpt lat="43.64258" lon="6.79914">
        <ele>462.5</ele>
        <time>2011-04-01T08:01:04Z</time>
      </trkpt>
      <trkpt lat="43.6425" lon="6.79912">
        <ele>461.600006</ele>
        <time>2011-04-01T08:01:11Z</time>
      </trkpt>
      <trkpt lat="43.64241" lon="6.79908">
        <ele>460.799988</ele>
        <time>2011-04-01T08:01:19Z</time>
      </trkpt>
      <trkpt lat="43.6424" lon="6.79908">
        <ele>460.600006</ele>
        <time>2011-04-01T08:01:20Z</time>
      </trkpt>
      <trkpt lat="43.64225" lon="6.79905">
        <ele>459.799988</ele>
        <time>2011-04-01T08:01:32Z</time>
      </trkpt>
      <trkpt lat="43.64216" lon="6.79905">
        <ele>459.399994</ele>
        <time>2011-04-01T08:01:39Z</time>
      </trkpt>
      <trkpt lat="43.64208" lon="6.79907">
        <ele>458.899994</ele>
        <time>2011-04-01T08:01:46Z</time>
      </trkpt>
      <trkpt lat="43.64201" lon="6.79912">
        <ele>458.299988</ele>
        <time>2011-04-01T08:01:53Z</time>
      </trkpt>
      <trkpt lat="43.64195" lon="6.7992">
        <ele>456.799988</ele>
        <time>2011-04-01T08:02:01Z</time>
      </trkpt>
      <trkpt lat="43.64186" lon="6.79924">
        <ele>455.600006</ele>
        <time>2011-04-01T08:02:09Z</time>
      </trkpt>
      <trkpt lat="43.64179" lon="6.79929">
        <ele>454</ele>
        <time>2011-04-01T08:02:17Z</time>
      </trkpt>
      <trkpt lat="43.64171" lon="6.79935">
        <ele>452.100006</ele>
        <time>2011-04-01T08:02:26Z</time>
      </trkpt>
      <trkpt lat="43.6417" lon="6.79935">
        <ele>451.5</ele>
        <time>2011-04-01T08:02:27Z</time>
      </trkpt>
      <trkpt lat="43.64156" lon="6.79948">
        <ele>448.600006</ele>
        <time>2011-04-01T08:02:44Z</time>
      </trkpt>
      <trkpt lat="43.6415" lon="6.79956">
        <ele>447.5</ele>
        <time>2011-04-01T08:02:51Z</time>
      </trkpt>
      <trkpt lat="43.64143" lon="6.79962">
        <ele>447.200012</ele>
        <time>2011-04-01T08:02:58Z</time>
      </trkpt>
      <trkpt lat="43.64136" lon="6.79969">
        <ele>446.200012</ele>
        <time>2011-04-01T08:03:06Z</time>
      </trkpt>
      <trkpt lat="43.64128" lon="6.79976">
        <ele>445.5</ele>
        <time>2011-04-01T08:03:15Z</time>
      </trkpt>
      <trkpt lat="43.64123" lon="6.79984">
        <ele>444.899994</ele>
        <time>2011-04-01T08:03:22Z</time>
      </trkpt>
      <trkpt lat="43.64118" lon="6.79994">
        <ele>444.600006</ele>
        <time>2011-04-01T08:03:29Z</time>
      </trkpt>
      <trkpt lat="43.64117" lon="6.79995">
        <ele>444.600006</ele>
        <time>2011-04-01T08:03:30Z</time>
      </trkpt>
      <trkpt lat="43.64109" lon="6.80013">
        <ele>444.399994</ele>
        <time>2011-04-01T08:03:42Z</time>
      </trkpt>
      <trkpt lat="43.64104" lon="6.80023">
        <ele>443.899994</ele>
        <time>2011-04-01T08:03:49Z</time>
      </trkpt>
      <trkpt lat="43.641" lon="6.80032">
        <ele>443.100006</ele>
        <time>2011-04-01T08:03:56Z</time>
      </trkpt>
      <trkpt lat="43.64094" lon="6.80041">
        <ele>442.299988</ele>
        <time>2011-04-01T08:04:04Z</time>
      </trkpt>
      <trkpt lat="43.64087" lon="6.80048">
        <ele>441.5</ele>
        <time>2011-04-01T08:04:37Z</time>
      </trkpt>
      <trkpt lat="43.64086" lon="6.80048">
        <ele>441.299988</ele>
        <time>2011-04-01T08:04:38Z</time>
      </trkpt>
      <trkpt lat="43.64071" lon="6.80058">
        <ele>438.5</ele>
        <time>2011-04-01T08:04:55Z</time>
      </trkpt>
      <trkpt lat="43.64064" lon="6.80064">
        <ele>436.799988</ele>
        <time>2011-04-01T08:05:03Z</time>
      </trkpt>
      <trkpt lat="43.64057" lon="6.80069">
        <ele>435.899994</ele>
        <time>2011-04-01T08:05:11Z</time>
      </trkpt>
      <trkpt lat="43.64049" lon="6.80072">
        <ele>433.399994</ele>
        <time>2011-04-01T08:05:18Z</time>
      </trkpt>
      <trkpt lat="43.64041" lon="6.80077">
        <ele>432.5</ele>
        <time>2011-04-01T08:05:26Z</time>
      </trkpt>
      <trkpt lat="43.64033" lon="6.80082">
        <ele>430.700012</ele>
        <time>2011-04-01T08:05:35Z</time>
      </trkpt>
      <trkpt lat="43.64025" lon="6.80087">
        <ele>428.899994</ele>
        <time>2011-04-01T08:05:43Z</time>
      </trkpt>
      <trkpt lat="43.64024" lon="6.80087">
        <ele>428.799988</ele>
        <time>2011-04-01T08:05:44Z</time>
      </trkpt>
      <trkpt lat="43.64008" lon="6.80089">
        <ele>425.899994</ele>
        <time>2011-04-01T08:06:08Z</time>
      </trkpt>
      <trkpt lat="43.63999" lon="6.8009">
        <ele>425</ele>
        <time>2011-04-01T08:06:17Z</time>
      </trkpt>
      <trkpt lat="43.63991" lon="6.80094">
        <ele>423.299988</ele>
        <time>2011-04-01T08:06:26Z</time>
      </trkpt>
      <trkpt lat="43.63984" lon="6.801">
        <ele>421.799988</ele>
        <time>2011-04-01T08:06:36Z</time>
      </trkpt>
      <trkpt lat="43.63977" lon="6.80108">
        <ele>420.399994</ele>
        <time>2011-04-01T08:07:29Z</time>
      </trkpt>
      <trkpt lat="43.63977" lon="6.80109">
        <ele>420.5</ele>
        <time>2011-04-01T08:07:30Z</time>
      </trkpt>
      <trkpt lat="43.63969" lon="6.80115">
        <ele>419.600006</ele>
        <time>2011-04-01T08:08:43Z</time>
      </trkpt>
      <trkpt lat="43.63955" lon="6.80124">
        <ele>416.399994</ele>
        <time>2011-04-01T08:09:05Z</time>
      </trkpt>
      <trkpt lat="43.63947" lon="6.80131">
        <ele>415.200012</ele>
        <time>2011-04-01T08:09:17Z</time>
      </trkpt>
      <trkpt lat="43.6394" lon="6.80136">
        <ele>413.600006</ele>
        <time>2011-04-01T08:09:26Z</time>
      </trkpt>
      <trkpt lat="43.63932" lon="6.8014">
        <ele>412.299988</ele>
        <time>2011-04-01T08:09:35Z</time>
      </trkpt>
      <trkpt lat="43.63924" lon="6.80144">
        <ele>410.5</ele>
        <time>2011-04-01T08:09:43Z</time>
      </trkpt>
      <trkpt lat="43.63923" lon="6.80145">
        <ele>410.299988</ele>
        <time>2011-04-01T08:09:44Z</time>
      </trkpt>
      <trkpt lat="43.63908" lon="6.80154">
        <ele>407.799988</ele>
        <time>2011-04-01T08:10:00Z</time>
      </trkpt>
      <trkpt lat="43.639" lon="6.80158">
        <ele>406.799988</ele>
        <time>2011-04-01T08:10:08Z</time>
      </trkpt>
      <trkpt lat="43.63892" lon="6.80158">
        <ele>405.700012</ele>
        <time>2011-04-01T08:10:15Z</time>
      </trkpt>
      <trkpt lat="43.63883" lon="6.80157">
        <ele>404.299988</ele>
        <time>2011-04-01T08:10:23Z</time>
      </trkpt>
      <trkpt lat="43.63875" lon="6.80156">
        <ele>402.899994</ele>
        <time>2011-04-01T08:10:31Z</time>
      </trkpt>
      <trkpt lat="43.63866" lon="6.80154">
        <ele>401.399994</ele>
        <time>2011-04-01T08:10:39Z</time>
      </trkpt>
      <trkpt lat="43.63858" lon="6.80153">
        <ele>400.100006</ele>
        <time>2011-04-01T08:10:47Z</time>
      </trkpt>
      <trkpt lat="43.63857" lon="6.80153">
        <ele>399.899994</ele>
        <time>2011-04-01T08:10:48Z</time>
      </trkpt>
      <trkpt lat="43.63842" lon="6.8015">
        <ele>397.399994</ele>
        <time>2011-04-01T08:11:01Z</time>
      </trkpt>
      <trkpt lat="43.63835" lon="6.80157">
        <ele>396.299988</ele>
        <time>2011-04-01T08:11:12Z</time>
      </trkpt>
      <trkpt lat="43.63833" lon="6.80168">
        <ele>396.399994</ele>
        <time>2011-04-01T08:11:22Z</time>
      </trkpt>
      <trkpt lat="43.63831" lon="6.80179">
        <ele>395.5</ele>
        <time>2011-04-01T08:11:30Z</time>
      </trkpt>
      <trkpt lat="43.63829" lon="6.80191">
        <ele>395.100006</ele>
        <time>2011-04-01T08:11:39Z</time>
      </trkpt>
      <trkpt lat="43.63827" lon="6.80201">
        <ele>394.399994</ele>
        <time>2011-04-01T08:11:46Z</time>
      </trkpt>
      <trkpt lat="43.63825" lon="6.80211">
        <ele>393</ele>
        <time>2011-04-01T08:11:52Z</time>
      </trkpt>
      <trkpt lat="43.63824" lon="6.80213">
        <ele>392.899994</ele>
        <time>2011-04-01T08:11:53Z</time>
      </trkpt>
      <trkpt lat="43.63818" lon="6.80232">
        <ele>391.600006</ele>
        <time>2011-04-01T08:12:06Z</time>
      </trkpt>
      <trkpt lat="43.63815" lon="6.80243">
        <ele>390.600006</ele>
        <time>2011-04-01T08:12:13Z</time>
      </trkpt>
      <trkpt lat="43.63812" lon="6.80255">
        <ele>390.100006</ele>
        <time>2011-04-01T08:12:20Z</time>
      </trkpt>
      <trkpt lat="43.63811" lon="6.80266">
        <ele>390</ele>
        <time>2011-04-01T08:12:27Z</time>
      </trkpt>
      <trkpt lat="43.63808" lon="6.80278">
        <ele>389.200012</ele>
        <time>2011-04-01T08:12:35Z</time>
      </trkpt>
      <trkpt lat="43.63805" lon="6.80289">
        <ele>388.700012</ele>
        <time>2011-04-01T08:12:42Z</time>
      </trkpt>
      <trkpt lat="43.63802" lon="6.803">
        <ele>388.5</ele>
        <time>2011-04-01T08:12:50Z</time>
      </trkpt>
      <trkpt lat="43.638" lon="6.8031">
        <ele>388.100006</ele>
        <time>2011-04-01T08:12:57Z</time>
      </trkpt>
      <trkpt lat="43.638" lon="6.80312">
        <ele>388.200012</ele>
        <time>2011-04-01T08:12:58Z</time>
      </trkpt>
      <trkpt lat="43.63794" lon="6.80333">
        <ele>387.600006</ele>
        <time>2011-04-01T08:13:13Z</time>
      </trkpt>
      <trkpt lat="43.63792" lon="6.80344">
        <ele>387.399994</ele>
        <time>2011-04-01T08:13:20Z</time>
      </trkpt>
      <trkpt lat="43.63788" lon="6.80355">
        <ele>387.5</ele>
        <time>2011-04-01T08:13:27Z</time>
      </trkpt>
      <trkpt lat="43.63785" lon="6.80365">
        <ele>387</ele>
        <time>2011-04-01T08:13:34Z</time>
      </trkpt>
      <trkpt lat="43.63781" lon="6.80375">
        <ele>386.600006</ele>
        <time>2011-04-01T08:13:41Z</time>
      </trkpt>
      <trkpt lat="43.63777" lon="6.80385">
        <ele>386.899994</ele>
        <time>2011-04-01T08:13:48Z</time>
      </trkpt>
      <trkpt lat="43.63773" lon="6.80395">
        <ele>387</ele>
        <time>2011-04-01T08:13:55Z</time>
      </trkpt>
      <trkpt lat="43.63769" lon="6.80405">
        <ele>386.700012</ele>
        <time>2011-04-01T08:14:02Z</time>
      </trkpt>
      <trkpt lat="43.63768" lon="6.80406">
        <ele>386.600006</ele>
        <time>2011-04-01T08:14:03Z</time>
      </trkpt>
      <trkpt lat="43.63753" lon="6.80412">
        <ele>385.5</ele>
        <time>2011-04-01T08:14:19Z</time>
      </trkpt>
      <trkpt lat="43.63744" lon="6.80415">
        <ele>385.299988</ele>
        <time>2011-04-01T08:14:28Z</time>
      </trkpt>
      <trkpt lat="43.63735" lon="6.80416">
        <ele>385.200012</ele>
        <time>2011-04-01T08:14:36Z</time>
      </trkpt>
      <trkpt lat="43.63727" lon="6.80419">
        <ele>385.299988</ele>
        <time>2011-04-01T08:14:44Z</time>
      </trkpt>
      <trkpt lat="43.63719" lon="6.80421">
        <ele>384.700012</ele>
        <time>2011-04-01T08:14:50Z</time>
      </trkpt>
      <trkpt lat="43.63711" lon="6.80422">
        <ele>384.700012</ele>
        <time>2011-04-01T08:14:57Z</time>
      </trkpt>
      <trkpt lat="43.63703" lon="6.80424">
        <ele>384.899994</ele>
        <time>2011-04-01T08:15:03Z</time>
      </trkpt>
      <trkpt lat="43.63702" lon="6.80425">
        <ele>385</ele>
        <time>2011-04-01T08:15:04Z</time>
      </trkpt>
      <trkpt lat="43.63687" lon="6.80432">
        <ele>384.600006</ele>
        <time>2011-04-01T08:15:17Z</time>
      </trkpt>
      <trkpt lat="43.63679" lon="6.80435">
        <ele>384.399994</ele>
        <time>2011-04-01T08:15:25Z</time>
      </trkpt>
      <trkpt lat="43.63671" lon="6.80439">
        <ele>384.200012</ele>
        <time>2011-04-01T08:15:33Z</time>
      </trkpt>
      <trkpt lat="43.63663" lon="6.80441">
        <ele>384.5</ele>
        <time>2011-04-01T08:15:41Z</time>
      </trkpt>
      <trkpt lat="43.63655" lon="6.80443">
        <ele>384.200012</ele>
        <time>2011-04-01T08:15:48Z</time>
      </trkpt>
      <trkpt lat="43.63647" lon="6.80445">
        <ele>384.200012</ele>
        <time>2011-04-01T08:15:54Z</time>
      </trkpt>
      <trkpt lat="43.63639" lon="6.8045">
        <ele>384.399994</ele>
        <time>2011-04-01T08:16:02Z</time>
      </trkpt>
      <trkpt lat="43.63631" lon="6.80453">
        <ele>384.399994</ele>
        <time>2011-04-01T08:16:11Z</time>
      </trkpt>
      <trkpt lat="43.6363" lon="6.80453">
        <ele>384.399994</ele>
        <time>2011-04-01T08:16:12Z</time>
      </trkpt>
      <trkpt lat="43.63615" lon="6.80464">
        <ele>384.399994</ele>
        <time>2011-04-01T08:16:28Z</time>
      </trkpt>
      <trkpt lat="43.63608" lon="6.80469">
        <ele>384.5</ele>
        <time>2011-04-01T08:16:38Z</time>
      </trkpt>
      <trkpt lat="43.636" lon="6.80475">
        <ele>384.200012</ele>
        <time>2011-04-01T08:17:09Z</time>
      </trkpt>
      <trkpt lat="43.63595" lon="6.80484">
        <ele>384.5</ele>
        <time>2011-04-01T08:17:20Z</time>
      </trkpt>
      <trkpt lat="43.63594" lon="6.80485">
        <ele>384.5</ele>
        <time>2011-04-01T08:17:21Z</time>
      </trkpt>
      <trkpt lat="43.63585" lon="6.80504">
        <ele>385.200012</ele>
        <time>2011-04-01T08:17:38Z</time>
      </trkpt>
      <trkpt lat="43.63579" lon="6.80513">
        <ele>386</ele>
        <time>2011-04-01T08:17:48Z</time>
      </trkpt>
      <trkpt lat="43.63574" lon="6.80522">
        <ele>386.299988</ele>
        <time>2011-04-01T08:17:56Z</time>
      </trkpt>
      <trkpt lat="43.63569" lon="6.8053">
        <ele>386.899994</ele>
        <time>2011-04-01T08:18:03Z</time>
      </trkpt>
      <trkpt lat="43.63562" lon="6.80538">
        <ele>386.700012</ele>
        <time>2011-04-01T08:18:10Z</time>
      </trkpt>
      <trkpt lat="43.63556" lon="6.80545">
        <ele>387</ele>
        <time>2011-04-01T08:18:17Z</time>
      </trkpt>
      <trkpt lat="43.6355" lon="6.80553">
        <ele>387.5</ele>
        <time>2011-04-01T08:18:26Z</time>
      </trkpt>
      <trkpt lat="43.63549" lon="6.80553">
        <ele>387.399994</ele>
        <time>2011-04-01T08:18:27Z</time>
      </trkpt>
      <trkpt lat="43.63542" lon="6.80573">
        <ele>387.899994</ele>
        <time>2011-04-01T08:18:45Z</time>
      </trkpt>
      <trkpt lat="43.63536" lon="6.80582">
        <ele>388.399994</ele>
        <time>2011-04-01T08:19:02Z</time>
      </trkpt>
      <trkpt lat="43.63531" lon="6.80592">
        <ele>388.600006</ele>
        <time>2011-04-01T08:19:17Z</time>
      </trkpt>
      <trkpt lat="43.63524" lon="6.806">
        <ele>388.700012</ele>
        <time>2011-04-01T08:19:29Z</time>
      </trkpt>
      <trkpt lat="43.63524" lon="6.80601">
        <ele>388.700012</ele>
        <time>2011-04-01T08:19:30Z</time>
      </trkpt>
      <trkpt lat="43.63513" lon="6.80617">
        <ele>388.5</ele>
        <time>2011-04-01T08:19:45Z</time>
      </trkpt>
      <trkpt lat="43.6351" lon="6.80628">
        <ele>388.200012</ele>
        <time>2011-04-01T08:19:53Z</time>
      </trkpt>
      <trkpt lat="43.63506" lon="6.80639">
        <ele>388.5</ele>
        <time>2011-04-01T08:20:03Z</time>
      </trkpt>
      <trkpt lat="43.63503" lon="6.8065">
        <ele>388.600006</ele>
        <time>2011-04-01T08:20:12Z</time>
      </trkpt>
      <trkpt lat="43.63501" lon="6.80662">
        <ele>388.200012</ele>
        <time>2011-04-01T08:20:20Z</time>
      </trkpt>
      <trkpt lat="43.63499" lon="6.80672">
        <ele>388</ele>
        <time>2011-04-01T08:20:27Z</time>
      </trkpt>
      <trkpt lat="43.63497" lon="6.80683">
        <ele>388.100006</ele>
        <time>2011-04-01T08:20:34Z</time>
      </trkpt>
      <trkpt lat="43.63496" lon="6.80684">
        <ele>388</ele>
        <time>2011-04-01T08:20:35Z</time>
      </trkpt>
      <trkpt lat="43.63492" lon="6.80705">
        <ele>386.600006</ele>
        <time>2011-04-01T08:20:48Z</time>
      </trkpt>
      <trkpt lat="43.63489" lon="6.80717">
        <ele>386.100006</ele>
        <time>2011-04-01T08:20:56Z</time>
      </trkpt>
      <trkpt lat="43.63487" lon="6.80727">
        <ele>386</ele>
        <time>2011-04-01T08:21:03Z</time>
      </trkpt>
      <trkpt lat="43.63483" lon="6.80738">
        <ele>385.200012</ele>
        <time>2011-04-01T08:21:10Z</time>
      </trkpt>
      <trkpt lat="43.63481" lon="6.80749">
        <ele>384.799988</ele>
        <time>2011-04-01T08:21:18Z</time>
      </trkpt>
      <trkpt lat="43.63479" lon="6.80759">
        <ele>384.399994</ele>
        <time>2011-04-01T08:21:25Z</time>
      </trkpt>
      <trkpt lat="43.63477" lon="6.80771">
        <ele>383.299988</ele>
        <time>2011-04-01T08:21:33Z</time>
      </trkpt>
      <trkpt lat="43.63473" lon="6.80781">
        <ele>382.5</ele>
        <time>2011-04-01T08:21:40Z</time>
      </trkpt>
      <trkpt lat="43.63472" lon="6.80783">
        <ele>382.399994</ele>
        <time>2011-04-01T08:21:41Z</time>
      </trkpt>
      <trkpt lat="43.63468" lon="6.80804">
        <ele>379.899994</ele>
        <time>2011-04-01T08:21:56Z</time>
      </trkpt>
      <trkpt lat="43.63466" lon="6.80816">
        <ele>378</ele>
        <time>2011-04-01T08:22:05Z</time>
      </trkpt>
      <trkpt lat="43.6346" lon="6.80824">
        <ele>377.799988</ele>
        <time>2011-04-01T08:22:35Z</time>
      </trkpt>
      <trkpt lat="43.63452" lon="6.80825">
        <ele>376.100006</ele>
        <time>2011-04-01T08:23:08Z</time>
      </trkpt>
      <trkpt lat="43.63451" lon="6.80825">
        <ele>375.799988</ele>
        <time>2011-04-01T08:23:09Z</time>
      </trkpt>
      <trkpt lat="43.63443" lon="6.80823">
        <ele>375.399994</ele>
        <time>2011-04-01T08:24:10Z</time>
      </trkpt>
      <trkpt lat="43.63443" lon="6.80822">
        <ele>375.5</ele>
        <time>2011-04-01T08:25:02Z</time>
      </trkpt>
      <trkpt lat="43.63437" lon="6.80831">
        <ele>374.100006</ele>
        <time>2011-04-01T08:25:56Z</time>
      </trkpt>
      <trkpt lat="43.63436" lon="6.80831">
        <ele>374.200012</ele>
        <time>2011-04-01T08:25:57Z</time>
      </trkpt>
      <trkpt lat="43.63423" lon="6.80845">
        <ele>370.899994</ele>
        <time>2011-04-01T08:26:24Z</time>
      </trkpt>
      <trkpt lat="43.63416" lon="6.80852">
        <ele>368.5</ele>
        <time>2011-04-01T08:26:39Z</time>
      </trkpt>
      <trkpt lat="43.63413" lon="6.80863">
        <ele>365.299988</ele>
        <time>2011-04-01T08:27:04Z</time>
      </trkpt>
      <trkpt lat="43.63413" lon="6.80864">
        <ele>364.799988</ele>
        <time>2011-04-01T08:27:05Z</time>
      </trkpt>
      <trkpt lat="43.6342" lon="6.80885">
        <ele>359.799988</ele>
        <time>2011-04-01T08:27:36Z</time>
      </trkpt>
      <trkpt lat="43.63425" lon="6.80895">
        <ele>357.700012</ele>
        <time>2011-04-01T08:27:50Z</time>
      </trkpt>
      <trkpt lat="43.63427" lon="6.80907">
        <ele>355.799988</ele>
        <time>2011-04-01T08:28:03Z</time>
      </trkpt>
      <trkpt lat="43.63427" lon="6.80919">
        <ele>353.5</ele>
        <time>2011-04-01T08:28:15Z</time>
      </trkpt>
      <trkpt lat="43.63427" lon="6.8092">
        <ele>353.299988</ele>
        <time>2011-04-01T08:28:16Z</time>
      </trkpt>
      <trkpt lat="43.63432" lon="6.80942">
        <ele>349.799988</ele>
        <time>2011-04-01T08:28:39Z</time>
      </trkpt>
      <trkpt lat="43.63434" lon="6.80953">
        <ele>348.299988</ele>
        <time>2011-04-01T08:28:49Z</time>
      </trkpt>
      <trkpt lat="43.63438" lon="6.80963">
        <ele>347</ele>
        <time>2011-04-01T08:29:22Z</time>
      </trkpt>
      <trkpt lat="43.63438" lon="6.80963">
        <ele>347</ele>
        <time>2011-04-01T08:29:23Z</time>
      </trkpt>
      <trkpt lat="43.63439" lon="6.80984">
        <ele>342</ele>
        <time>2011-04-01T08:30:49Z</time>
      </trkpt>
      <trkpt lat="43.63439" lon="6.80984">
        <ele>341.899994</ele>
        <time>2011-04-01T08:30:50Z</time>
      </trkpt>
      <trkpt lat="43.63449" lon="6.80999">
        <ele>337.100006</ele>
        <time>2011-04-01T08:31:20Z</time>
      </trkpt>
      <trkpt lat="43.63449" lon="6.81012">
        <ele>334.200012</ele>
        <time>2011-04-01T08:31:39Z</time>
      </trkpt>
      <trkpt lat="43.63458" lon="6.81013">
        <ele>331.799988</ele>
        <time>2011-04-01T08:31:56Z</time>
      </trkpt>
      <trkpt lat="43.63459" lon="6.81013">
        <ele>331.600006</ele>
        <time>2011-04-01T08:31:57Z</time>
      </trkpt>
      <trkpt lat="43.63471" lon="6.81025">
        <ele>328.799988</ele>
        <time>2011-04-01T08:34:29Z</time>
      </trkpt>
      <trkpt lat="43.63471" lon="6.81025">
        <ele>328.700012</ele>
        <time>2011-04-01T08:34:30Z</time>
      </trkpt>
      <trkpt lat="43.63463" lon="6.8103">
        <ele>327.799988</ele>
        <time>2011-04-01T08:38:24Z</time>
      </trkpt>
      <trkpt lat="43.63458" lon="6.81053">
        <ele>340.799988</ele>
        <time>2011-04-01T08:39:31Z</time>
      </trkpt>
      <trkpt lat="43.63458" lon="6.81054">
        <ele>340.899994</ele>
        <time>2011-04-01T08:39:32Z</time>
      </trkpt>
      <trkpt lat="43.63448" lon="6.81071">
        <ele>336.600006</ele>
        <time>2011-04-01T08:40:06Z</time>
      </trkpt>
      <trkpt lat="43.63448" lon="6.81083">
        <ele>335.100006</ele>
        <time>2011-04-01T08:40:18Z</time>
      </trkpt>
      <trkpt lat="43.63444" lon="6.81094">
        <ele>332.399994</ele>
        <time>2011-04-01T08:40:39Z</time>
      </trkpt>
      <trkpt lat="43.63444" lon="6.81094">
        <ele>332.100006</ele>
        <time>2011-04-01T08:40:40Z</time>
      </trkpt>
      <trkpt lat="43.63434" lon="6.81111">
        <ele>325.399994</ele>
        <time>2011-04-01T08:41:32Z</time>
      </trkpt>
      <trkpt lat="43.63425" lon="6.81112">
        <ele>321.799988</ele>
        <time>2011-04-01T08:41:56Z</time>
      </trkpt>
      <trkpt lat="43.63425" lon="6.81112">
        <ele>321.899994</ele>
        <time>2011-04-01T08:41:57Z</time>
      </trkpt>
      <trkpt lat="43.63409" lon="6.81118">
        <ele>315.100006</ele>
        <time>2011-04-01T08:42:51Z</time>
      </trkpt>
      <trkpt lat="43.63401" lon="6.81121">
        <ele>311.200012</ele>
        <time>2011-04-01T08:43:28Z</time>
      </trkpt>
      <trkpt lat="43.634" lon="6.81121">
        <ele>311.100006</ele>
        <time>2011-04-01T08:43:29Z</time>
      </trkpt>
      <trkpt lat="43.63395" lon="6.81125">
        <ele>308.399994</ele>
        <time>2011-04-01T08:44:06Z</time>
      </trkpt>
      <trkpt lat="43.63387" lon="6.81122">
        <ele>305.600006</ele>
        <time>2011-04-01T08:44:33Z</time>
      </trkpt>
      <trkpt lat="43.63386" lon="6.81122">
        <ele>305.600006</ele>
        <time>2011-04-01T08:44:34Z</time>
      </trkpt>
      <trkpt lat="43.6338" lon="6.81133">
        <ele>300.899994</ele>
        <time>2011-04-01T08:45:37Z</time>
      </trkpt>
      <trkpt lat="43.6338" lon="6.81134">
        <ele>300.799988</ele>
        <time>2011-04-01T08:45:38Z</time>
      </trkpt>
      <trkpt lat="43.63365" lon="6.81123">
        <ele>296.5</ele>
        <time>2011-04-01T08:46:25Z</time>
      </trkpt>
      <trkpt lat="43.63367" lon="6.81135">
        <ele>292.100006</ele>
        <time>2011-04-01T08:46:56Z</time>
      </trkpt>
      <trkpt lat="43.63367" lon="6.81135">
        <ele>292</ele>
        <time>2011-04-01T08:46:57Z</time>
      </trkpt>
      <trkpt lat="43.63366" lon="6.81155">
        <ele>286.100006</ele>
        <time>2011-04-01T08:48:01Z</time>
      </trkpt>
      <trkpt lat="43.63366" lon="6.81155">
        <ele>286</ele>
        <time>2011-04-01T08:48:02Z</time>
      </trkpt>
      <trkpt lat="43.63372" lon="6.81178">
        <ele>281.299988</ele>
        <time>2011-04-01T08:48:49Z</time>
      </trkpt>
      <trkpt lat="43.63363" lon="6.81176">
        <ele>276.299988</ele>
        <time>2011-04-01T08:49:19Z</time>
      </trkpt>
      <trkpt lat="43.63362" lon="6.81176">
        <ele>276.200012</ele>
        <time>2011-04-01T08:49:20Z</time>
      </trkpt>
      <trkpt lat="43.63352" lon="6.81159">
        <ele>273</ele>
        <time>2011-04-01T08:49:43Z</time>
      </trkpt>
      <trkpt lat="43.63345" lon="6.81152">
        <ele>271.200012</ele>
        <time>2011-04-01T08:49:55Z</time>
      </trkpt>
      <trkpt lat="43.63337" lon="6.81158">
        <ele>264.600006</ele>
        <time>2011-04-01T08:50:35Z</time>
      </trkpt>
      <trkpt lat="43.63336" lon="6.81157">
        <ele>264.200012</ele>
        <time>2011-04-01T08:50:36Z</time>
      </trkpt>
      <trkpt lat="43.63322" lon="6.81146">
        <ele>259.299988</ele>
        <time>2011-04-01T08:51:01Z</time>
      </trkpt>
      <trkpt lat="43.63314" lon="6.81145">
        <ele>254.5</ele>
        <time>2011-04-01T08:51:30Z</time>
      </trkpt>
      <trkpt lat="43.63305" lon="6.81145">
        <ele>251.399994</ele>
        <time>2011-04-01T08:51:47Z</time>
      </trkpt>
      <trkpt lat="43.63304" lon="6.81144">
        <ele>251.5</ele>
        <time>2011-04-01T08:51:48Z</time>
      </trkpt>
      <trkpt lat="43.63297" lon="6.81159">
        <ele>241.5</ele>
        <time>2011-04-01T09:01:51Z</time>
      </trkpt>
      <trkpt lat="43.63296" lon="6.81158">
        <ele>241.399994</ele>
        <time>2011-04-01T09:01:52Z</time>
      </trkpt>
      <trkpt lat="43.63301" lon="6.81181">
        <ele>235.699997</ele>
        <time>2011-04-01T09:02:40Z</time>
      </trkpt>
      <trkpt lat="43.63302" lon="6.81193">
        <ele>232.600006</ele>
        <time>2011-04-01T09:02:55Z</time>
      </trkpt>
      <trkpt lat="43.63303" lon="6.81194">
        <ele>232.5</ele>
        <time>2011-04-01T09:02:56Z</time>
      </trkpt>
      <trkpt lat="43.63302" lon="6.81217">
        <ele>227.699997</ele>
        <time>2011-04-01T09:03:23Z</time>
      </trkpt>
      <trkpt lat="43.63299" lon="6.81229">
        <ele>225.600006</ele>
        <time>2011-04-01T09:03:37Z</time>
      </trkpt>
      <trkpt lat="43.633" lon="6.8124">
        <ele>224.800003</ele>
        <time>2011-04-01T09:03:49Z</time>
      </trkpt>
      <trkpt lat="43.63297" lon="6.81251">
        <ele>222.800003</ele>
        <time>2011-04-01T09:04:04Z</time>
      </trkpt>
      <trkpt lat="43.63297" lon="6.81252">
        <ele>222.600006</ele>
        <time>2011-04-01T09:04:05Z</time>
      </trkpt>
      <trkpt lat="43.6329" lon="6.81265">
        <ele>216.600006</ele>
        <time>2011-04-01T09:04:42Z</time>
      </trkpt>
      <trkpt lat="43.63281" lon="6.81265">
        <ele>213.899994</ele>
        <time>2011-04-01T09:04:55Z</time>
      </trkpt>
      <trkpt lat="43.63273" lon="6.81269">
        <ele>211.300003</ele>
        <time>2011-04-01T09:05:12Z</time>
      </trkpt>
      <trkpt lat="43.63272" lon="6.81269">
        <ele>211.199997</ele>
        <time>2011-04-01T09:05:13Z</time>
      </trkpt>
      <trkpt lat="43.63256" lon="6.81274">
        <ele>205.699997</ele>
        <time>2011-04-01T09:06:02Z</time>
      </trkpt>
      <trkpt lat="43.63247" lon="6.81277">
        <ele>203.399994</ele>
        <time>2011-04-01T09:06:19Z</time>
      </trkpt>
      <trkpt lat="43.63247" lon="6.81277">
        <ele>203.199997</ele>
        <time>2011-04-01T09:06:20Z</time>
      </trkpt>
      <trkpt lat="43.6323" lon="6.81284">
        <ele>198.699997</ele>
        <time>2011-04-01T09:06:43Z</time>
      </trkpt>
      <trkpt lat="43.63222" lon="6.81284">
        <ele>197</ele>
        <time>2011-04-01T09:08:33Z</time>
      </trkpt>
      <trkpt lat="43.63221" lon="6.81284">
        <ele>196.899994</ele>
        <time>2011-04-01T09:08:34Z</time>
      </trkpt>
      <trkpt lat="43.63213" lon="6.81285">
        <ele>195.800003</ele>
        <time>2011-04-01T09:13:09Z</time>
      </trkpt>
      <trkpt lat="43.63201" lon="6.8127">
        <ele>191.699997</ele>
        <time>2011-04-01T09:13:43Z</time>
      </trkpt>
      <trkpt lat="43.63197" lon="6.8126">
        <ele>191</ele>
        <time>2011-04-01T09:13:51Z</time>
      </trkpt>
      <trkpt lat="43.63195" lon="6.81249">
        <ele>189.800003</ele>
        <time>2011-04-01T09:14:00Z</time>
      </trkpt>
      <trkpt lat="43.63194" lon="6.81238">
        <ele>188.5</ele>
        <time>2011-04-01T09:14:08Z</time>
      </trkpt>
      <trkpt lat="43.63192" lon="6.81226">
        <ele>188</ele>
        <time>2011-04-01T09:14:16Z</time>
      </trkpt>
      <trkpt lat="43.63191" lon="6.81225">
        <ele>188.100006</ele>
        <time>2011-04-01T09:14:17Z</time>
      </trkpt>
      <trkpt lat="43.63189" lon="6.81202">
        <ele>188.100006</ele>
        <time>2011-04-01T09:14:33Z</time>
      </trkpt>
      <trkpt lat="43.63189" lon="6.8119">
        <ele>188.5</ele>
        <time>2011-04-01T09:14:41Z</time>
      </trkpt>
      <trkpt lat="43.63185" lon="6.81181">
        <ele>188.5</ele>
        <time>2011-04-01T09:14:50Z</time>
      </trkpt>
      <trkpt lat="43.63177" lon="6.81175">
        <ele>187.399994</ele>
        <time>2011-04-01T09:14:58Z</time>
      </trkpt>
      <trkpt lat="43.63175" lon="6.81164">
        <ele>187.199997</ele>
        <time>2011-04-01T09:15:05Z</time>
      </trkpt>
      <trkpt lat="43.63174" lon="6.81152">
        <ele>186.699997</ele>
        <time>2011-04-01T09:15:13Z</time>
      </trkpt>
      <trkpt lat="43.6317" lon="6.81142">
        <ele>186.399994</ele>
        <time>2011-04-01T09:15:21Z</time>
      </trkpt>
      <trkpt lat="43.6317" lon="6.81141">
        <ele>186.399994</ele>
        <time>2011-04-01T09:15:22Z</time>
      </trkpt>
      <trkpt lat="43.63164" lon="6.81121">
        <ele>186</ele>
        <time>2011-04-01T09:15:59Z</time>
      </trkpt>
      <trkpt lat="43.63164" lon="6.81109">
        <ele>186.699997</ele>
        <time>2011-04-01T09:16:35Z</time>
      </trkpt>
      <trkpt lat="43.63164" lon="6.81109">
        <ele>186.800003</ele>
        <time>2011-04-01T09:16:36Z</time>
      </trkpt>
      <trkpt lat="43.63161" lon="6.81086">
        <ele>189.199997</ele>
        <time>2011-04-01T09:17:01Z</time>
      </trkpt>
      <trkpt lat="43.63159" lon="6.81075">
        <ele>190.100006</ele>
        <time>2011-04-01T09:17:11Z</time>
      </trkpt>
      <trkpt lat="43.63157" lon="6.81063">
        <ele>190.600006</ele>
        <time>2011-04-01T09:17:21Z</time>
      </trkpt>
      <trkpt lat="43.63156" lon="6.81051">
        <ele>190.899994</ele>
        <time>2011-04-01T09:17:30Z</time>
      </trkpt>
      <trkpt lat="43.63154" lon="6.8104">
        <ele>190.399994</ele>
        <time>2011-04-01T09:17:38Z</time>
      </trkpt>
      <trkpt lat="43.63154" lon="6.81038">
        <ele>190.5</ele>
        <time>2011-04-01T09:17:39Z</time>
      </trkpt>
      <trkpt lat="43.63151" lon="6.81018">
        <ele>188.300003</ele>
        <time>2011-04-01T09:17:55Z</time>
      </trkpt>
      <trkpt lat="43.63151" lon="6.81007">
        <ele>187.199997</ele>
        <time>2011-04-01T09:18:03Z</time>
      </trkpt>
      <trkpt lat="43.63151" lon="6.80995">
        <ele>186.199997</ele>
        <time>2011-04-01T09:18:13Z</time>
      </trkpt>
      <trkpt lat="43.63148" lon="6.80985">
        <ele>185.800003</ele>
        <time>2011-04-01T09:18:29Z</time>
      </trkpt>
      <trkpt lat="43.63141" lon="6.80976">
        <ele>185</ele>
        <time>2011-04-01T09:18:39Z</time>
      </trkpt>
      <trkpt lat="43.6314" lon="6.80976">
        <ele>185</ele>
        <time>2011-04-01T09:18:40Z</time>
      </trkpt>
      <trkpt lat="43.63143" lon="6.80964">
        <ele>185.600006</ele>
        <time>2011-04-01T09:20:45Z</time>
      </trkpt>
      <trkpt lat="43.63141" lon="6.80941">
        <ele>185.800003</ele>
        <time>2011-04-01T09:21:12Z</time>
      </trkpt>
      <trkpt lat="43.63138" lon="6.8093">
        <ele>185.5</ele>
        <time>2011-04-01T09:21:28Z</time>
      </trkpt>
      <trkpt lat="43.63134" lon="6.80919">
        <ele>185.800003</ele>
        <time>2011-04-01T09:21:43Z</time>
      </trkpt>
      <trkpt lat="43.63128" lon="6.8091">
        <ele>185.699997</ele>
        <time>2011-04-01T09:22:00Z</time>
      </trkpt>
      <trkpt lat="43.63128" lon="6.80909">
        <ele>185.699997</ele>
        <time>2011-04-01T09:22:01Z</time>
      </trkpt>
      <trkpt lat="43.63125" lon="6.80887">
        <ele>188.300003</ele>
        <time>2011-04-01T09:22:43Z</time>
      </trkpt>
      <trkpt lat="43.63121" lon="6.80876">
        <ele>189.699997</ele>
        <time>2011-04-01T09:23:00Z</time>
      </trkpt>
      <trkpt lat="43.6312" lon="6.80864">
        <ele>191.399994</ele>
        <time>2011-04-01T09:23:12Z</time>
      </trkpt>
      <trkpt lat="43.63119" lon="6.80863">
        <ele>191.300003</ele>
        <time>2011-04-01T09:23:13Z</time>
      </trkpt>
      <trkpt lat="43.63109" lon="6.80845">
        <ele>195.199997</ele>
        <time>2011-04-01T09:23:55Z</time>
      </trkpt>
      <trkpt lat="43.63103" lon="6.80836">
        <ele>194.800003</ele>
        <time>2011-04-01T09:24:08Z</time>
      </trkpt>
      <trkpt lat="43.63098" lon="6.80826">
        <ele>194.5</ele>
        <time>2011-04-01T09:24:25Z</time>
      </trkpt>
      <trkpt lat="43.63098" lon="6.80825">
        <ele>194.5</ele>
        <time>2011-04-01T09:24:26Z</time>
      </trkpt>
      <trkpt lat="43.63093" lon="6.80805">
        <ele>194.300003</ele>
        <time>2011-04-01T09:24:48Z</time>
      </trkpt>
      <trkpt lat="43.63089" lon="6.80795">
        <ele>193.600006</ele>
        <time>2011-04-01T09:24:57Z</time>
      </trkpt>
      <trkpt lat="43.63083" lon="6.80786">
        <ele>193.399994</ele>
        <time>2011-04-01T09:25:05Z</time>
      </trkpt>
      <trkpt lat="43.63077" lon="6.80778">
        <ele>193.199997</ele>
        <time>2011-04-01T09:25:14Z</time>
      </trkpt>
      <trkpt lat="43.6307" lon="6.80772">
        <ele>193.100006</ele>
        <time>2011-04-01T09:25:22Z</time>
      </trkpt>
      <trkpt lat="43.63062" lon="6.80767">
        <ele>193.5</ele>
        <time>2011-04-01T09:25:30Z</time>
      </trkpt>
      <trkpt lat="43.63061" lon="6.80766">
        <ele>193.399994</ele>
        <time>2011-04-01T09:25:31Z</time>
      </trkpt>
      <trkpt lat="43.63048" lon="6.80751">
        <ele>194.399994</ele>
        <time>2011-04-01T09:25:48Z</time>
      </trkpt>
      <trkpt lat="43.63043" lon="6.80742">
        <ele>195</ele>
        <time>2011-04-01T09:25:57Z</time>
      </trkpt>
      <trkpt lat="43.63038" lon="6.80733">
        <ele>194.899994</ele>
        <time>2011-04-01T09:26:06Z</time>
      </trkpt>
      <trkpt lat="43.63032" lon="6.80724">
        <ele>195</ele>
        <time>2011-04-01T09:26:35Z</time>
      </trkpt>
      <trkpt lat="43.63032" lon="6.80723">
        <ele>195.100006</ele>
        <time>2011-04-01T09:26:36Z</time>
      </trkpt>
      <trkpt lat="43.63026" lon="6.80701">
        <ele>195.5</ele>
        <time>2011-04-01T09:26:53Z</time>
      </trkpt>
      <trkpt lat="43.63024" lon="6.80691">
        <ele>195.899994</ele>
        <time>2011-04-01T09:27:03Z</time>
      </trkpt>
      <trkpt lat="43.63023" lon="6.8068">
        <ele>195.899994</ele>
        <time>2011-04-01T09:27:10Z</time>
      </trkpt>
      <trkpt lat="43.63022" lon="6.80667">
        <ele>195.600006</ele>
        <time>2011-04-01T09:27:18Z</time>
      </trkpt>
      <trkpt lat="43.63021" lon="6.80655">
        <ele>195.699997</ele>
        <time>2011-04-01T09:27:26Z</time>
      </trkpt>
      <trkpt lat="43.63019" lon="6.80644">
        <ele>195.399994</ele>
        <time>2011-04-01T09:27:34Z</time>
      </trkpt>
      <trkpt lat="43.63016" lon="6.80633">
        <ele>195</ele>
        <time>2011-04-01T09:27:42Z</time>
      </trkpt>
      <trkpt lat="43.63015" lon="6.80632">
        <ele>195.199997</ele>
        <time>2011-04-01T09:27:43Z</time>
      </trkpt>
      <trkpt lat="43.63007" lon="6.80614">
        <ele>195.100006</ele>
        <time>2011-04-01T09:27:59Z</time>
      </trkpt>
      <trkpt lat="43.63002" lon="6.80603">
        <ele>194.899994</ele>
        <time>2011-04-01T09:28:08Z</time>
      </trkpt>
      <trkpt lat="43.63" lon="6.80593">
        <ele>194.800003</ele>
        <time>2011-04-01T09:28:15Z</time>
      </trkpt>
      <trkpt lat="43.62998" lon="6.80581">
        <ele>195.699997</ele>
        <time>2011-04-01T09:28:26Z</time>
      </trkpt>
      <trkpt lat="43.62995" lon="6.8057">
        <ele>196</ele>
        <time>2011-04-01T09:28:36Z</time>
      </trkpt>
      <trkpt lat="43.62993" lon="6.80558">
        <ele>196.399994</ele>
        <time>2011-04-01T09:28:46Z</time>
      </trkpt>
      <trkpt lat="43.62993" lon="6.80557">
        <ele>196.199997</ele>
        <time>2011-04-01T09:28:47Z</time>
      </trkpt>
      <trkpt lat="43.62988" lon="6.80536">
        <ele>197.5</ele>
        <time>2011-04-01T09:29:04Z</time>
      </trkpt>
      <trkpt lat="43.62985" lon="6.80526">
        <ele>197.300003</ele>
        <time>2011-04-01T09:29:13Z</time>
      </trkpt>
      <trkpt lat="43.6298" lon="6.80517">
        <ele>196.899994</ele>
        <time>2011-04-01T09:29:21Z</time>
      </trkpt>
      <trkpt lat="43.62973" lon="6.80509">
        <ele>196.5</ele>
        <time>2011-04-01T09:29:29Z</time>
      </trkpt>
      <trkpt lat="43.62966" lon="6.80502">
        <ele>195.399994</ele>
        <time>2011-04-01T09:29:38Z</time>
      </trkpt>
      <trkpt lat="43.6296" lon="6.80494">
        <ele>194.5</ele>
        <time>2011-04-01T09:29:46Z</time>
      </trkpt>
      <trkpt lat="43.62956" lon="6.80484">
        <ele>194.199997</ele>
        <time>2011-04-01T09:29:54Z</time>
      </trkpt>
      <trkpt lat="43.62955" lon="6.80482">
        <ele>194</ele>
        <time>2011-04-01T09:29:55Z</time>
      </trkpt>
      <trkpt lat="43.62948" lon="6.80462">
        <ele>194</ele>
        <time>2011-04-01T09:30:11Z</time>
      </trkpt>
      <trkpt lat="43.62943" lon="6.80452">
        <ele>193.899994</ele>
        <time>2011-04-01T09:30:19Z</time>
      </trkpt>
      <trkpt lat="43.62939" lon="6.80443">
        <ele>194.300003</ele>
        <time>2011-04-01T09:30:27Z</time>
      </trkpt>
      <trkpt lat="43.62934" lon="6.80433">
        <ele>194.199997</ele>
        <time>2011-04-01T09:30:35Z</time>
      </trkpt>
      <trkpt lat="43.6293" lon="6.80423">
        <ele>194.800003</ele>
        <time>2011-04-01T09:30:43Z</time>
      </trkpt>
      <trkpt lat="43.62926" lon="6.80414">
        <ele>194.800003</ele>
        <time>2011-04-01T09:30:51Z</time>
      </trkpt>
      <trkpt lat="43.62922" lon="6.80403">
        <ele>195.199997</ele>
        <time>2011-04-01T09:31:00Z</time>
      </trkpt>
      <trkpt lat="43.62922" lon="6.80402">
        <ele>195.300003</ele>
        <time>2011-04-01T09:31:01Z</time>
      </trkpt>
      <trkpt lat="43.62911" lon="6.80385">
        <ele>196.300003</ele>
        <time>2011-04-01T09:31:19Z</time>
      </trkpt>
      <trkpt lat="43.62907" lon="6.80374">
        <ele>197.100006</ele>
        <time>2011-04-01T09:31:28Z</time>
      </trkpt>
      <trkpt lat="43.62901" lon="6.80368">
        <ele>197.100006</ele>
        <time>2011-04-01T09:31:35Z</time>
      </trkpt>
      <trkpt lat="43.62895" lon="6.80358">
        <ele>196.899994</ele>
        <time>2011-04-01T09:31:43Z</time>
      </trkpt>
      <trkpt lat="43.62894" lon="6.80346">
        <ele>197.300003</ele>
        <time>2011-04-01T09:31:53Z</time>
      </trkpt>
      <trkpt lat="43.62889" lon="6.80336">
        <ele>195.800003</ele>
        <time>2011-04-01T09:32:06Z</time>
      </trkpt>
      <trkpt lat="43.62889" lon="6.80336">
        <ele>195.600006</ele>
        <time>2011-04-01T09:32:07Z</time>
      </trkpt>
      <trkpt lat="43.62884" lon="6.80314">
        <ele>193.399994</ele>
        <time>2011-04-01T09:32:27Z</time>
      </trkpt>
      <trkpt lat="43.62886" lon="6.80302">
        <ele>192.600006</ele>
        <time>2011-04-01T09:32:35Z</time>
      </trkpt>
      <trkpt lat="43.62886" lon="6.8029">
        <ele>192.800003</ele>
        <time>2011-04-01T09:32:47Z</time>
      </trkpt>
      <trkpt lat="43.62887" lon="6.80278">
        <ele>193.399994</ele>
        <time>2011-04-01T09:32:55Z</time>
      </trkpt>
      <trkpt lat="43.62888" lon="6.80265">
        <ele>192.699997</ele>
        <time>2011-04-01T09:33:04Z</time>
      </trkpt>
      <trkpt lat="43.62889" lon="6.80254">
        <ele>192.899994</ele>
        <time>2011-04-01T09:33:12Z</time>
      </trkpt>
      <trkpt lat="43.62889" lon="6.80252">
        <ele>192.800003</ele>
        <time>2011-04-01T09:33:13Z</time>
      </trkpt>
      <trkpt lat="43.62888" lon="6.80231">
        <ele>192.600006</ele>
        <time>2011-04-01T09:33:27Z</time>
      </trkpt>
      <trkpt lat="43.62885" lon="6.80219">
        <ele>191.300003</ele>
        <time>2011-04-01T09:33:37Z</time>
      </trkpt>
      <trkpt lat="43.62878" lon="6.80214">
        <ele>189.399994</ele>
        <time>2011-04-01T09:33:48Z</time>
      </trkpt>
      <trkpt lat="43.6287" lon="6.80214">
        <ele>187.300003</ele>
        <time>2011-04-01T09:33:59Z</time>
      </trkpt>
      <trkpt lat="43.62862" lon="6.80209">
        <ele>185.5</ele>
        <time>2011-04-01T09:34:09Z</time>
      </trkpt>
      <trkpt lat="43.62855" lon="6.80203">
        <ele>184.399994</ele>
        <time>2011-04-01T09:34:18Z</time>
      </trkpt>
      <trkpt lat="43.62854" lon="6.80203">
        <ele>184.300003</ele>
        <time>2011-04-01T09:34:19Z</time>
      </trkpt>
      <trkpt lat="43.62845" lon="6.80184">
        <ele>181.800003</ele>
        <time>2011-04-01T09:35:03Z</time>
      </trkpt>
      <trkpt lat="43.62842" lon="6.80173">
        <ele>180.699997</ele>
        <time>2011-04-01T09:35:13Z</time>
      </trkpt>
      <trkpt lat="43.62835" lon="6.80164">
        <ele>179.800003</ele>
        <time>2011-04-01T09:35:25Z</time>
      </trkpt>
      <trkpt lat="43.62835" lon="6.80164">
        <ele>179.699997</ele>
        <time>2011-04-01T09:35:26Z</time>
      </trkpt>
      <trkpt lat="43.62837" lon="6.80143">
        <ele>177.699997</ele>
        <time>2011-04-01T09:36:32Z</time>
      </trkpt>
      <trkpt lat="43.62838" lon="6.80143">
        <ele>177.600006</ele>
        <time>2011-04-01T09:36:33Z</time>
      </trkpt>
      <trkpt lat="43.62853" lon="6.8014">
        <ele>177.300003</ele>
        <time>2011-04-01T09:37:11Z</time>
      </trkpt>
      <trkpt lat="43.62845" lon="6.80145">
        <ele>177.600006</ele>
        <time>2011-04-01T09:37:43Z</time>
      </trkpt>
      <trkpt lat="43.62845" lon="6.80145">
        <ele>177.600006</ele>
        <time>2011-04-01T09:37:44Z</time>
      </trkpt>
      <trkpt lat="43.62843" lon="6.80157">
        <ele>177.899994</ele>
        <time>2011-04-01T09:41:52Z</time>
      </trkpt>
      <trkpt lat="43.62849" lon="6.80145">
        <ele>177.800003</ele>
        <time>2011-04-01T09:43:09Z</time>
      </trkpt>
      <trkpt lat="43.6285" lon="6.80148">
        <ele>177.399994</ele>
        <time>2011-04-01T09:44:08Z</time>
      </trkpt>
      <trkpt lat="43.62854" lon="6.80137">
        <ele>177.699997</ele>
        <time>2011-04-01T09:46:00Z</time>
      </trkpt>
      <trkpt lat="43.62854" lon="6.80137">
        <ele>177.699997</ele>
        <time>2011-04-01T09:46:01Z</time>
      </trkpt>
      <trkpt lat="43.62844" lon="6.8015">
        <ele>177.600006</ele>
        <time>2011-04-01T09:47:24Z</time>
      </trkpt>
      <trkpt lat="43.62843" lon="6.80152">
        <ele>177.800003</ele>
        <time>2011-04-01T09:47:25Z</time>
      </trkpt>
      <trkpt lat="43.62852" lon="6.80143">
        <ele>178.199997</ele>
        <time>2011-04-01T09:48:33Z</time>
      </trkpt>
      <trkpt lat="43.62851" lon="6.80143">
        <ele>178.300003</ele>
        <time>2011-04-01T09:49:24Z</time>
      </trkpt>
      <trkpt lat="43.62851" lon="6.80155">
        <ele>178.399994</ele>
        <time>2011-04-01T09:50:29Z</time>
      </trkpt>
      <trkpt lat="43.62851" lon="6.80155">
        <ele>178.600006</ele>
        <time>2011-04-01T09:50:30Z</time>
      </trkpt>
      <trkpt lat="43.62851" lon="6.80154">
        <ele>180.600006</ele>
        <time>2011-04-01T09:52:14Z</time>
      </trkpt>
      <trkpt lat="43.62851" lon="6.80155">
        <ele>180.5</ele>
        <time>2011-04-01T09:52:15Z</time>
      </trkpt>
      <trkpt lat="43.62843" lon="6.80159">
        <ele>179.899994</ele>
        <time>2011-04-01T09:54:07Z</time>
      </trkpt>
      <trkpt lat="43.62844" lon="6.80158">
        <ele>179.899994</ele>
        <time>2011-04-01T09:54:30Z</time>
      </trkpt>
      <trkpt lat="43.62849" lon="6.8015">
        <ele>180</ele>
        <time>2011-04-01T09:54:42Z</time>
      </trkpt>
      <trkpt lat="43.62853" lon="6.80145">
        <ele>179.899994</ele>
        <time>2011-04-01T09:54:45Z</time>
      </trkpt>
      <trkpt lat="43.62861" lon="6.80138">
        <ele>179.899994</ele>
        <time>2011-04-01T09:55:05Z</time>
      </trkpt>
      <trkpt lat="43.62853" lon="6.80142">
        <ele>180.199997</ele>
        <time>2011-04-01T09:55:49Z</time>
      </trkpt>
      <trkpt lat="43.62852" lon="6.80143">
        <ele>180.199997</ele>
        <time>2011-04-01T09:55:50Z</time>
      </trkpt>
      <trkpt lat="43.62857" lon="6.80131">
        <ele>180.5</ele>
        <time>2011-04-01T09:58:15Z</time>
      </trkpt>
      <trkpt lat="43.62841" lon="6.80142">
        <ele>180.699997</ele>
        <time>2011-04-01T09:59:02Z</time>
      </trkpt>
      <trkpt lat="43.62849" lon="6.8014">
        <ele>180.199997</ele>
        <time>2011-04-01T09:59:47Z</time>
      </trkpt>
      <trkpt lat="43.6285" lon="6.80139">
        <ele>180.300003</ele>
        <time>2011-04-01T09:59:48Z</time>
      </trkpt>
      <trkpt lat="43.62842" lon="6.80148">
        <ele>180.399994</ele>
        <time>2011-04-01T10:01:01Z</time>
      </trkpt>
      <trkpt lat="43.62835" lon="6.80154">
        <ele>180.600006</ele>
        <time>2011-04-01T10:02:31Z</time>
      </trkpt>
      <trkpt lat="43.62842" lon="6.80146">
        <ele>180.899994</ele>
        <time>2011-04-01T10:07:11Z</time>
      </trkpt>
      <trkpt lat="43.62842" lon="6.8015">
        <ele>180.399994</ele>
        <time>2011-04-01T10:11:04Z</time>
      </trkpt>
      <trkpt lat="43.62843" lon="6.8015">
        <ele>180.5</ele>
        <time>2011-04-01T10:11:05Z</time>
      </trkpt>
      <trkpt lat="43.62838" lon="6.80138">
        <ele>180.899994</ele>
        <time>2011-04-01T10:13:27Z</time>
      </trkpt>
      <trkpt lat="43.62847" lon="6.80134">
        <ele>181.100006</ele>
        <time>2011-04-01T10:16:01Z</time>
      </trkpt>
      <trkpt lat="43.62846" lon="6.80141">
        <ele>181.300003</ele>
        <time>2011-04-01T10:18:57Z</time>
      </trkpt>
      <trkpt lat="43.62847" lon="6.80141">
        <ele>181.300003</ele>
        <time>2011-04-01T10:18:58Z</time>
      </trkpt>
      <trkpt lat="43.62847" lon="6.80131">
        <ele>181.5</ele>
        <time>2011-04-01T10:20:26Z</time>
      </trkpt>
      <trkpt lat="43.62846" lon="6.8013">
        <ele>181.399994</ele>
        <time>2011-04-01T10:20:27Z</time>
      </trkpt>
      <trkpt lat="43.62834" lon="6.80139">
        <ele>181.100006</ele>
        <time>2011-04-01T10:24:39Z</time>
      </trkpt>
      <trkpt lat="43.62832" lon="6.8014">
        <ele>181.100006</ele>
        <time>2011-04-01T10:24:40Z</time>
      </trkpt>
      <trkpt lat="43.62843" lon="6.80139">
        <ele>181.800003</ele>
        <time>2011-04-01T10:25:57Z</time>
      </trkpt>
      <trkpt lat="43.62833" lon="6.80141">
        <ele>181.600006</ele>
        <time>2011-04-01T10:27:12Z</time>
      </trkpt>
      <trkpt lat="43.62842" lon="6.80162">
        <ele>184.600006</ele>
        <time>2011-04-01T10:28:06Z</time>
      </trkpt>
      <trkpt lat="43.62846" lon="6.80172">
        <ele>185.699997</ele>
        <time>2011-04-01T10:29:16Z</time>
      </trkpt>
      <trkpt lat="43.62847" lon="6.80173">
        <ele>185.699997</ele>
        <time>2011-04-01T10:29:17Z</time>
      </trkpt>
      <trkpt lat="43.6285" lon="6.80191">
        <ele>188.600006</ele>
        <time>2011-04-01T10:29:42Z</time>
      </trkpt>
      <trkpt lat="43.62858" lon="6.80195">
        <ele>189.100006</ele>
        <time>2011-04-01T10:29:52Z</time>
      </trkpt>
      <trkpt lat="43.62865" lon="6.80202">
        <ele>190.199997</ele>
        <time>2011-04-01T10:30:04Z</time>
      </trkpt>
      <trkpt lat="43.62873" lon="6.80205">
        <ele>192.300003</ele>
        <time>2011-04-01T10:30:19Z</time>
      </trkpt>
      <trkpt lat="43.62873" lon="6.80206">
        <ele>192.5</ele>
        <time>2011-04-01T10:30:20Z</time>
      </trkpt>
      <trkpt lat="43.6289" lon="6.8021">
        <ele>199.100006</ele>
        <time>2011-04-01T10:31:11Z</time>
      </trkpt>
      <trkpt lat="43.62899" lon="6.80209">
        <ele>201.899994</ele>
        <time>2011-04-01T10:31:35Z</time>
      </trkpt>
      <trkpt lat="43.62899" lon="6.80208">
        <ele>202</ele>
        <time>2011-04-01T10:31:36Z</time>
      </trkpt>
      <trkpt lat="43.62916" lon="6.80204">
        <ele>208.399994</ele>
        <time>2011-04-01T10:32:06Z</time>
      </trkpt>
      <trkpt lat="43.62924" lon="6.80201">
        <ele>210.699997</ele>
        <time>2011-04-01T10:32:19Z</time>
      </trkpt>
      <trkpt lat="43.6293" lon="6.80192">
        <ele>212.600006</ele>
        <time>2011-04-01T10:32:33Z</time>
      </trkpt>
      <trkpt lat="43.62929" lon="6.8018">
        <ele>214.600006</ele>
        <time>2011-04-01T10:32:49Z</time>
      </trkpt>
      <trkpt lat="43.62929" lon="6.80179">
        <ele>214.800003</ele>
        <time>2011-04-01T10:32:50Z</time>
      </trkpt>
      <trkpt lat="43.62927" lon="6.80156">
        <ele>217.5</ele>
        <time>2011-04-01T10:34:32Z</time>
      </trkpt>
      <trkpt lat="43.62926" lon="6.80156">
        <ele>217.600006</ele>
        <time>2011-04-01T10:34:33Z</time>
      </trkpt>
      <trkpt lat="43.62936" lon="6.80155">
        <ele>218.600006</ele>
        <time>2011-04-01T10:35:47Z</time>
      </trkpt>
      <trkpt lat="43.62941" lon="6.80135">
        <ele>223</ele>
        <time>2011-04-01T10:36:30Z</time>
      </trkpt>
      <trkpt lat="43.62948" lon="6.80129">
        <ele>224.100006</ele>
        <time>2011-04-01T10:36:42Z</time>
      </trkpt>
      <trkpt lat="43.62956" lon="6.80124">
        <ele>224.699997</ele>
        <time>2011-04-01T10:36:53Z</time>
      </trkpt>
      <trkpt lat="43.62957" lon="6.80124">
        <ele>224.800003</ele>
        <time>2011-04-01T10:36:54Z</time>
      </trkpt>
      <trkpt lat="43.62966" lon="6.80104">
        <ele>226.399994</ele>
        <time>2011-04-01T10:37:29Z</time>
      </trkpt>
      <trkpt lat="43.62973" lon="6.80096">
        <ele>226.899994</ele>
        <time>2011-04-01T10:37:39Z</time>
      </trkpt>
      <trkpt lat="43.62969" lon="6.80086">
        <ele>226</ele>
        <time>2011-04-01T10:37:50Z</time>
      </trkpt>
      <trkpt lat="43.62968" lon="6.80074">
        <ele>226.100006</ele>
        <time>2011-04-01T10:38:05Z</time>
      </trkpt>
      <trkpt lat="43.62969" lon="6.80073">
        <ele>225.600006</ele>
        <time>2011-04-01T10:38:06Z</time>
      </trkpt>
      <trkpt lat="43.62969" lon="6.80051">
        <ele>224.399994</ele>
        <time>2011-04-01T10:38:28Z</time>
      </trkpt>
      <trkpt lat="43.62975" lon="6.80043">
        <ele>224.199997</ele>
        <time>2011-04-01T10:38:36Z</time>
      </trkpt>
      <trkpt lat="43.62981" lon="6.80034">
        <ele>222.600006</ele>
        <time>2011-04-01T10:38:49Z</time>
      </trkpt>
      <trkpt lat="43.62989" lon="6.80028">
        <ele>220.100006</ele>
        <time>2011-04-01T10:39:06Z</time>
      </trkpt>
      <trkpt lat="43.62989" lon="6.80028">
        <ele>220.100006</ele>
        <time>2011-04-01T10:39:07Z</time>
      </trkpt>
      <trkpt lat="43.63004" lon="6.80017">
        <ele>218</ele>
        <time>2011-04-01T10:39:31Z</time>
      </trkpt>
      <trkpt lat="43.63011" lon="6.80012">
        <ele>217.100006</ele>
        <time>2011-04-01T10:39:42Z</time>
      </trkpt>
      <trkpt lat="43.63019" lon="6.80007">
        <ele>216.800003</ele>
        <time>2011-04-01T10:39:53Z</time>
      </trkpt>
      <trkpt lat="43.63026" lon="6.80001">
        <ele>215.300003</ele>
        <time>2011-04-01T10:40:04Z</time>
      </trkpt>
      <trkpt lat="43.63034" lon="6.79996">
        <ele>214.300003</ele>
        <time>2011-04-01T10:40:13Z</time>
      </trkpt>
      <trkpt lat="43.63035" lon="6.79995">
        <ele>214.399994</ele>
        <time>2011-04-01T10:40:14Z</time>
      </trkpt>
      <trkpt lat="43.63048" lon="6.79983">
        <ele>213.300003</ele>
        <time>2011-04-01T10:40:30Z</time>
      </trkpt>
      <trkpt lat="43.63055" lon="6.79977">
        <ele>212.600006</ele>
        <time>2011-04-01T10:40:39Z</time>
      </trkpt>
      <trkpt lat="43.63061" lon="6.79968">
        <ele>212.300003</ele>
        <time>2011-04-01T10:40:54Z</time>
      </trkpt>
      <trkpt lat="43.63066" lon="6.79959">
        <ele>210.800003</ele>
        <time>2011-04-01T10:41:12Z</time>
      </trkpt>
      <trkpt lat="43.63071" lon="6.7995">
        <ele>210.300003</ele>
        <time>2011-04-01T10:41:18Z</time>
      </trkpt>
      <trkpt lat="43.63071" lon="6.79948">
        <ele>210.199997</ele>
        <time>2011-04-01T10:41:19Z</time>
      </trkpt>
      <trkpt lat="43.63085" lon="6.7994">
        <ele>209.800003</ele>
        <time>2011-04-01T10:41:36Z</time>
      </trkpt>
      <trkpt lat="43.63094" lon="6.79941">
        <ele>210.5</ele>
        <time>2011-04-01T10:41:46Z</time>
      </trkpt>
      <trkpt lat="43.63103" lon="6.79937">
        <ele>211.699997</ele>
        <time>2011-04-01T10:42:14Z</time>
      </trkpt>
      <trkpt lat="43.6311" lon="6.79932">
        <ele>211.800003</ele>
        <time>2011-04-01T10:42:33Z</time>
      </trkpt>
      <trkpt lat="43.63111" lon="6.79932">
        <ele>211.800003</ele>
        <time>2011-04-01T10:42:34Z</time>
      </trkpt>
      <trkpt lat="43.63125" lon="6.79919">
        <ele>206.5</ele>
        <time>2011-04-01T10:43:17Z</time>
      </trkpt>
      <trkpt lat="43.63133" lon="6.79917">
        <ele>207.300003</ele>
        <time>2011-04-01T10:43:33Z</time>
      </trkpt>
      <trkpt lat="43.63142" lon="6.79917">
        <ele>209.199997</ele>
        <time>2011-04-01T10:43:56Z</time>
      </trkpt>
      <trkpt lat="43.63142" lon="6.79918">
        <ele>209.199997</ele>
        <time>2011-04-01T10:43:57Z</time>
      </trkpt>
      <trkpt lat="43.63152" lon="6.799">
        <ele>210.100006</ele>
        <time>2011-04-01T10:44:19Z</time>
      </trkpt>
      <trkpt lat="43.63159" lon="6.79892">
        <ele>211.199997</ele>
        <time>2011-04-01T10:44:26Z</time>
      </trkpt>
      <trkpt lat="43.63167" lon="6.79887">
        <ele>212.899994</ele>
        <time>2011-04-01T10:44:38Z</time>
      </trkpt>
      <trkpt lat="43.63175" lon="6.79886">
        <ele>215.300003</ele>
        <time>2011-04-01T10:44:52Z</time>
      </trkpt>
      <trkpt lat="43.63184" lon="6.79883">
        <ele>216.800003</ele>
        <time>2011-04-01T10:45:05Z</time>
      </trkpt>
      <trkpt lat="43.63184" lon="6.79883">
        <ele>217</ele>
        <time>2011-04-01T10:45:06Z</time>
      </trkpt>
      <trkpt lat="43.63201" lon="6.79884">
        <ele>217.5</ele>
        <time>2011-04-01T10:45:35Z</time>
      </trkpt>
      <trkpt lat="43.6321" lon="6.79886">
        <ele>218.899994</ele>
        <time>2011-04-01T10:45:52Z</time>
      </trkpt>
      <trkpt lat="43.63217" lon="6.79882">
        <ele>217.5</ele>
        <time>2011-04-01T10:46:15Z</time>
      </trkpt>
      <trkpt lat="43.63218" lon="6.79881">
        <ele>217.399994</ele>
        <time>2011-04-01T10:46:16Z</time>
      </trkpt>
      <trkpt lat="43.63228" lon="6.79862">
        <ele>217.100006</ele>
        <time>2011-04-01T10:46:37Z</time>
      </trkpt>
      <trkpt lat="43.63231" lon="6.79852">
        <ele>216.600006</ele>
        <time>2011-04-01T10:46:46Z</time>
      </trkpt>
      <trkpt lat="43.63238" lon="6.79843">
        <ele>217</ele>
        <time>2011-04-01T10:47:01Z</time>
      </trkpt>
      <trkpt lat="43.63245" lon="6.79836">
        <ele>216.5</ele>
        <time>2011-04-01T10:47:12Z</time>
      </trkpt>
      <trkpt lat="43.6325" lon="6.79826">
        <ele>217</ele>
        <time>2011-04-01T10:47:24Z</time>
      </trkpt>
      <trkpt lat="43.6325" lon="6.79825">
        <ele>216.800003</ele>
        <time>2011-04-01T10:47:25Z</time>
      </trkpt>
      <trkpt lat="43.63259" lon="6.79808">
        <ele>215.5</ele>
        <time>2011-04-01T10:47:54Z</time>
      </trkpt>
      <trkpt lat="43.63263" lon="6.79798">
        <ele>215.399994</ele>
        <time>2011-04-01T10:48:05Z</time>
      </trkpt>
      <trkpt lat="43.63266" lon="6.79786">
        <ele>214.600006</ele>
        <time>2011-04-01T10:48:17Z</time>
      </trkpt>
      <trkpt lat="43.63269" lon="6.79775">
        <ele>215</ele>
        <time>2011-04-01T10:48:27Z</time>
      </trkpt>
      <trkpt lat="43.6327" lon="6.79774">
        <ele>215.100006</ele>
        <time>2011-04-01T10:48:28Z</time>
      </trkpt>
      <trkpt lat="43.63283" lon="6.79762">
        <ele>214</ele>
        <time>2011-04-01T10:48:48Z</time>
      </trkpt>
      <trkpt lat="43.63289" lon="6.79754">
        <ele>214.800003</ele>
        <time>2011-04-01T10:49:08Z</time>
      </trkpt>
      <trkpt lat="43.63297" lon="6.7975">
        <ele>216.399994</ele>
        <time>2011-04-01T10:49:18Z</time>
      </trkpt>
      <trkpt lat="43.63302" lon="6.7974">
        <ele>216.399994</ele>
        <time>2011-04-01T10:49:37Z</time>
      </trkpt>
      <trkpt lat="43.63302" lon="6.79739">
        <ele>216.5</ele>
        <time>2011-04-01T10:49:38Z</time>
      </trkpt>
      <trkpt lat="43.63319" lon="6.79736">
        <ele>222.600006</ele>
        <time>2011-04-01T10:50:20Z</time>
      </trkpt>
      <trkpt lat="43.63327" lon="6.79736">
        <ele>224.899994</ele>
        <time>2011-04-01T10:50:31Z</time>
      </trkpt>
      <trkpt lat="43.63336" lon="6.79733">
        <ele>226.899994</ele>
        <time>2011-04-01T10:50:45Z</time>
      </trkpt>
      <trkpt lat="43.63336" lon="6.79733">
        <ele>227.300003</ele>
        <time>2011-04-01T10:50:46Z</time>
      </trkpt>
      <trkpt lat="43.63349" lon="6.79718">
        <ele>228.600006</ele>
        <time>2011-04-01T10:51:17Z</time>
      </trkpt>
      <trkpt lat="43.63356" lon="6.7971">
        <ele>231</ele>
        <time>2011-04-01T10:51:44Z</time>
      </trkpt>
      <trkpt lat="43.63361" lon="6.79701">
        <ele>233.300003</ele>
        <time>2011-04-01T10:53:07Z</time>
      </trkpt>
      <trkpt lat="43.63361" lon="6.797">
        <ele>233.5</ele>
        <time>2011-04-01T10:53:08Z</time>
      </trkpt>
      <trkpt lat="43.63371" lon="6.79682">
        <ele>236.399994</ele>
        <time>2011-04-01T10:53:51Z</time>
      </trkpt>
      <trkpt lat="43.63378" lon="6.79673">
        <ele>237.399994</ele>
        <time>2011-04-01T10:54:06Z</time>
      </trkpt>
      <trkpt lat="43.63382" lon="6.79663">
        <ele>239.600006</ele>
        <time>2011-04-01T10:54:24Z</time>
      </trkpt>
      <trkpt lat="43.63383" lon="6.79662">
        <ele>239.600006</ele>
        <time>2011-04-01T10:54:25Z</time>
      </trkpt>
      <trkpt lat="43.63397" lon="6.79652">
        <ele>244</ele>
        <time>2011-04-01T10:54:48Z</time>
      </trkpt>
      <trkpt lat="43.63399" lon="6.79663">
        <ele>247.800003</ele>
        <time>2011-04-01T10:55:11Z</time>
      </trkpt>
      <trkpt lat="43.63408" lon="6.79659">
        <ele>250.800003</ele>
        <time>2011-04-01T10:55:54Z</time>
      </trkpt>
      <trkpt lat="43.63408" lon="6.79659">
        <ele>251</ele>
        <time>2011-04-01T10:55:55Z</time>
      </trkpt>
      <trkpt lat="43.63414" lon="6.79668">
        <ele>257.200012</ele>
        <time>2011-04-01T10:57:48Z</time>
      </trkpt>
      <trkpt lat="43.6342" lon="6.79678">
        <ele>257.799988</ele>
        <time>2011-04-01T10:58:50Z</time>
      </trkpt>
      <trkpt lat="43.63424" lon="6.79665">
        <ele>258.399994</ele>
        <time>2011-04-01T11:00:16Z</time>
      </trkpt>
      <trkpt lat="43.6344" lon="6.79658">
        <ele>260.600006</ele>
        <time>2011-04-01T11:01:00Z</time>
      </trkpt>
      <trkpt lat="43.63445" lon="6.7965">
        <ele>261.700012</ele>
        <time>2011-04-01T11:01:13Z</time>
      </trkpt>
      <trkpt lat="43.6345" lon="6.79639">
        <ele>262.399994</ele>
        <time>2011-04-01T11:01:26Z</time>
      </trkpt>
      <trkpt lat="43.6345" lon="6.79639">
        <ele>262.5</ele>
        <time>2011-04-01T11:01:27Z</time>
      </trkpt>
      <trkpt lat="43.63467" lon="6.79638">
        <ele>268.200012</ele>
        <time>2011-04-01T11:02:05Z</time>
      </trkpt>
      <trkpt lat="43.63476" lon="6.79637">
        <ele>270.399994</ele>
        <time>2011-04-01T11:02:18Z</time>
      </trkpt>
      <trkpt lat="43.63484" lon="6.79634">
        <ele>271.299988</ele>
        <time>2011-04-01T11:02:30Z</time>
      </trkpt>
      <trkpt lat="43.63484" lon="6.79633">
        <ele>271.5</ele>
        <time>2011-04-01T11:02:31Z</time>
      </trkpt>
      <trkpt lat="43.63499" lon="6.79624">
        <ele>273.100006</ele>
        <time>2011-04-01T11:02:51Z</time>
      </trkpt>
      <trkpt lat="43.63507" lon="6.79619">
        <ele>274.899994</ele>
        <time>2011-04-01T11:03:04Z</time>
      </trkpt>
      <trkpt lat="43.63514" lon="6.79611">
        <ele>276.399994</ele>
        <time>2011-04-01T11:03:19Z</time>
      </trkpt>
      <trkpt lat="43.63521" lon="6.79605">
        <ele>276.5</ele>
        <time>2011-04-01T11:03:29Z</time>
      </trkpt>
      <trkpt lat="43.63529" lon="6.79599">
        <ele>277.700012</ele>
        <time>2011-04-01T11:03:41Z</time>
      </trkpt>
      <trkpt lat="43.63529" lon="6.79599">
        <ele>277.700012</ele>
        <time>2011-04-01T11:03:42Z</time>
      </trkpt>
      <trkpt lat="43.63545" lon="6.79605">
        <ele>277.200012</ele>
        <time>2011-04-01T11:04:09Z</time>
      </trkpt>
      <trkpt lat="43.63552" lon="6.79612">
        <ele>277</ele>
        <time>2011-04-01T11:04:28Z</time>
      </trkpt>
      <trkpt lat="43.63558" lon="6.79621">
        <ele>277.399994</ele>
        <time>2011-04-01T11:04:56Z</time>
      </trkpt>
      <trkpt lat="43.63558" lon="6.79622">
        <ele>277.600006</ele>
        <time>2011-04-01T11:04:57Z</time>
      </trkpt>
      <trkpt lat="43.63564" lon="6.79631">
        <ele>276.799988</ele>
        <time>2011-04-01T11:06:53Z</time>
      </trkpt>
      <trkpt lat="43.63581" lon="6.79633">
        <ele>278.899994</ele>
        <time>2011-04-01T11:07:26Z</time>
      </trkpt>
      <trkpt lat="43.63588" lon="6.79637">
        <ele>278.899994</ele>
        <time>2011-04-01T11:07:38Z</time>
      </trkpt>
      <trkpt lat="43.63596" lon="6.79642">
        <ele>278.600006</ele>
        <time>2011-04-01T11:07:49Z</time>
      </trkpt>
      <trkpt lat="43.63604" lon="6.79647">
        <ele>277.700012</ele>
        <time>2011-04-01T11:08:03Z</time>
      </trkpt>
      <trkpt lat="43.63605" lon="6.79648">
        <ele>277.700012</ele>
        <time>2011-04-01T11:08:04Z</time>
      </trkpt>
      <trkpt lat="43.63617" lon="6.79662">
        <ele>277.899994</ele>
        <time>2011-04-01T11:08:22Z</time>
      </trkpt>
      <trkpt lat="43.63625" lon="6.79668">
        <ele>278.600006</ele>
        <time>2011-04-01T11:08:33Z</time>
      </trkpt>
      <trkpt lat="43.63633" lon="6.79673">
        <ele>280.200012</ele>
        <time>2011-04-01T11:08:45Z</time>
      </trkpt>
      <trkpt lat="43.63641" lon="6.79679">
        <ele>281.799988</ele>
        <time>2011-04-01T11:08:59Z</time>
      </trkpt>
      <trkpt lat="43.63649" lon="6.79683">
        <ele>284</ele>
        <time>2011-04-01T11:09:13Z</time>
      </trkpt>
      <trkpt lat="43.6365" lon="6.79683">
        <ele>284.299988</ele>
        <time>2011-04-01T11:09:14Z</time>
      </trkpt>
      <trkpt lat="43.63664" lon="6.79695">
        <ele>286.899994</ele>
        <time>2011-04-01T11:09:37Z</time>
      </trkpt>
      <trkpt lat="43.63672" lon="6.79697">
        <ele>287.299988</ele>
        <time>2011-04-01T11:09:48Z</time>
      </trkpt>
      <trkpt lat="43.6368" lon="6.79702">
        <ele>287.100006</ele>
        <time>2011-04-01T11:09:58Z</time>
      </trkpt>
      <trkpt lat="43.63686" lon="6.79709">
        <ele>287.5</ele>
        <time>2011-04-01T11:10:06Z</time>
      </trkpt>
      <trkpt lat="43.63692" lon="6.79716">
        <ele>287.5</ele>
        <time>2011-04-01T11:10:14Z</time>
      </trkpt>
      <trkpt lat="43.63693" lon="6.79717">
        <ele>287.299988</ele>
        <time>2011-04-01T11:10:15Z</time>
      </trkpt>
      <trkpt lat="43.63705" lon="6.79731">
        <ele>285.899994</ele>
        <time>2011-04-01T11:10:31Z</time>
      </trkpt>
      <trkpt lat="43.63712" lon="6.79737">
        <ele>285.700012</ele>
        <time>2011-04-01T11:10:40Z</time>
      </trkpt>
      <trkpt lat="43.6372" lon="6.79743">
        <ele>285.399994</ele>
        <time>2011-04-01T11:10:51Z</time>
      </trkpt>
      <trkpt lat="43.63728" lon="6.79747">
        <ele>284.600006</ele>
        <time>2011-04-01T11:11:01Z</time>
      </trkpt>
      <trkpt lat="43.63734" lon="6.79754">
        <ele>284.399994</ele>
        <time>2011-04-01T11:11:10Z</time>
      </trkpt>
      <trkpt lat="43.63741" lon="6.79762">
        <ele>284.399994</ele>
        <time>2011-04-01T11:11:21Z</time>
      </trkpt>
      <trkpt lat="43.63741" lon="6.79762">
        <ele>284.399994</ele>
        <time>2011-04-01T11:11:22Z</time>
      </trkpt>
      <trkpt lat="43.63757" lon="6.79766">
        <ele>286.700012</ele>
        <time>2011-04-01T11:11:40Z</time>
      </trkpt>
      <trkpt lat="43.63766" lon="6.79765">
        <ele>286.899994</ele>
        <time>2011-04-01T11:11:51Z</time>
      </trkpt>
      <trkpt lat="43.63773" lon="6.79758">
        <ele>285.600006</ele>
        <time>2011-04-01T11:12:02Z</time>
      </trkpt>
      <trkpt lat="43.63781" lon="6.79756">
        <ele>285.899994</ele>
        <time>2011-04-01T11:12:12Z</time>
      </trkpt>
      <trkpt lat="43.63788" lon="6.79749">
        <ele>287.100006</ele>
        <time>2011-04-01T11:12:32Z</time>
      </trkpt>
      <trkpt lat="43.63789" lon="6.79748">
        <ele>287.299988</ele>
        <time>2011-04-01T11:12:33Z</time>
      </trkpt>
      <trkpt lat="43.63801" lon="6.79734">
        <ele>288</ele>
        <time>2011-04-01T11:12:52Z</time>
      </trkpt>
      <trkpt lat="43.63809" lon="6.7973">
        <ele>288.700012</ele>
        <time>2011-04-01T11:13:02Z</time>
      </trkpt>
      <trkpt lat="43.63818" lon="6.7973">
        <ele>290.600006</ele>
        <time>2011-04-01T11:13:14Z</time>
      </trkpt>
      <trkpt lat="43.63825" lon="6.79736">
        <ele>292.200012</ele>
        <time>2011-04-01T11:13:34Z</time>
      </trkpt>
      <trkpt lat="43.63825" lon="6.79737">
        <ele>292.5</ele>
        <time>2011-04-01T11:13:35Z</time>
      </trkpt>
      <trkpt lat="43.63841" lon="6.79746">
        <ele>296.5</ele>
        <time>2011-04-01T11:14:31Z</time>
      </trkpt>
      <trkpt lat="43.63849" lon="6.79751">
        <ele>298.700012</ele>
        <time>2011-04-01T11:14:45Z</time>
      </trkpt>
      <trkpt lat="43.6385" lon="6.79752">
        <ele>298.700012</ele>
        <time>2011-04-01T11:14:46Z</time>
      </trkpt>
      <trkpt lat="43.63861" lon="6.79769">
        <ele>301.5</ele>
        <time>2011-04-01T11:15:45Z</time>
      </trkpt>
      <trkpt lat="43.63869" lon="6.79773">
        <ele>302.700012</ele>
        <time>2011-04-01T11:16:10Z</time>
      </trkpt>
      <trkpt lat="43.6387" lon="6.79774">
        <ele>302.899994</ele>
        <time>2011-04-01T11:16:11Z</time>
      </trkpt>
      <trkpt lat="43.63885" lon="6.79764">
        <ele>304.600006</ele>
        <time>2011-04-01T11:16:44Z</time>
      </trkpt>
      <trkpt lat="43.63891" lon="6.79756">
        <ele>306</ele>
        <time>2011-04-01T11:17:19Z</time>
      </trkpt>
      <trkpt lat="43.63892" lon="6.79756">
        <ele>306.100006</ele>
        <time>2011-04-01T11:17:20Z</time>
      </trkpt>
      <trkpt lat="43.63905" lon="6.79741">
        <ele>305.299988</ele>
        <time>2011-04-01T11:17:48Z</time>
      </trkpt>
      <trkpt lat="43.63912" lon="6.79736">
        <ele>304.5</ele>
        <time>2011-04-01T11:17:57Z</time>
      </trkpt>
      <trkpt lat="43.6392" lon="6.79731">
        <ele>304.600006</ele>
        <time>2011-04-01T11:18:10Z</time>
      </trkpt>
      <trkpt lat="43.63929" lon="6.79733">
        <ele>305.200012</ele>
        <time>2011-04-01T11:18:24Z</time>
      </trkpt>
      <trkpt lat="43.63929" lon="6.79733">
        <ele>305.200012</ele>
        <time>2011-04-01T11:18:25Z</time>
      </trkpt>
      <trkpt lat="43.63945" lon="6.79725">
        <ele>304.600006</ele>
        <time>2011-04-01T11:18:57Z</time>
      </trkpt>
      <trkpt lat="43.63949" lon="6.79714">
        <ele>303.600006</ele>
        <time>2011-04-01T11:19:07Z</time>
      </trkpt>
      <trkpt lat="43.63956" lon="6.79707">
        <ele>302.5</ele>
        <time>2011-04-01T11:19:17Z</time>
      </trkpt>
      <trkpt lat="43.63964" lon="6.79702">
        <ele>302.299988</ele>
        <time>2011-04-01T11:19:32Z</time>
      </trkpt>
      <trkpt lat="43.63965" lon="6.79702">
        <ele>302.299988</ele>
        <time>2011-04-01T11:19:33Z</time>
      </trkpt>
      <trkpt lat="43.63975" lon="6.79683">
        <ele>300.799988</ele>
        <time>2011-04-01T11:19:55Z</time>
      </trkpt>
      <trkpt lat="43.63983" lon="6.7968">
        <ele>300.799988</ele>
        <time>2011-04-01T11:20:15Z</time>
      </trkpt>
      <trkpt lat="43.63989" lon="6.7967">
        <ele>299.399994</ele>
        <time>2011-04-01T11:22:22Z</time>
      </trkpt>
      <trkpt lat="43.63989" lon="6.7967">
        <ele>299.600006</ele>
        <time>2011-04-01T11:22:23Z</time>
      </trkpt>
      <trkpt lat="43.64024" lon="6.79643">
        <ele>309.245239</ele>
        <time>2011-03-27T20:10:41Z</time>
      </trkpt>
      <trkpt lat="43.64035" lon="6.79638">
        <ele>306.89975</ele>
        <time>2011-03-30T05:29:34Z</time>
      </trkpt>
      <trkpt lat="43.64054" lon="6.79612">
        <ele>300.563324</ele>
        <time>2011-03-30T14:24:04Z</time>
      </trkpt>
      <trkpt lat="43.64055" lon="6.79614">
        <ele>301.54248</ele>
        <time>2011-03-30T15:02:20Z</time>
      </trkpt>
      <trkpt lat="43.64065" lon="6.79602">
        <ele>297.284882</ele>
        <time>2011-03-30T18:19:43Z</time>
      </trkpt>
      <trkpt lat="43.64063" lon="6.79602">
        <ele>297.569183</ele>
        <time>2011-03-30T18:41:39Z</time>
      </trkpt>
      <trkpt lat="43.64065" lon="6.79588">
        <ele>291.874908</ele>
        <time>2011-03-30T21:42:11Z</time>
      </trkpt>
      <trkpt lat="43.64071" lon="6.79582">
        <ele>290.435211</ele>
        <time>2011-03-30T22:23:12Z</time>
      </trkpt>
      <trkpt lat="43.64085" lon="6.79571">
        <ele>289.069977</ele>
        <time>2011-03-30T22:43:01Z</time>
      </trkpt>
      <trkpt lat="43.64084" lon="6.79561">
        <ele>284.333008</ele>
        <time>2011-03-30T22:51:42Z</time>
      </trkpt>
      <trkpt lat="43.6411" lon="6.79546">
        <ele>282.224487</ele>
        <time>2011-03-30T22:55:54Z</time>
      </trkpt>
      <trkpt lat="43.64112" lon="6.79536">
        <ele>282.462463</ele>
        <time>2011-03-30T22:58:43Z</time>
      </trkpt>
      <trkpt lat="43.64091" lon="6.79533">
        <ele>274.54187</ele>
        <time>2011-03-30T23:05:08Z</time>
      </trkpt>
      <trkpt lat="43.64086" lon="6.79527">
        <ele>270.07309</ele>
        <time>2011-03-30T23:07:20Z</time>
      </trkpt>
      <trkpt lat="43.64098" lon="6.79519">
        <ele>271.700684</ele>
        <time>2011-03-30T23:11:41Z</time>
      </trkpt>
      <trkpt lat="43.64104" lon="6.79509">
        <ele>269.794403</ele>
        <time>2011-03-30T23:14:47Z</time>
      </trkpt>
      <trkpt lat="43.64116" lon="6.79503">
        <ele>273.002777</ele>
        <time>2011-03-30T23:15:32Z</time>
      </trkpt>
      <trkpt lat="43.64132" lon="6.79504">
        <ele>280.694946</ele>
        <time>2011-03-30T23:16:34Z</time>
      </trkpt>
      <trkpt lat="43.64153" lon="6.79504">
        <ele>287.488403</ele>
        <time>2011-03-30T23:17:39Z</time>
      </trkpt>
      <trkpt lat="43.64162" lon="6.795">
        <ele>292.958984</ele>
        <time>2011-03-30T23:18:11Z</time>
      </trkpt>
      <trkpt lat="43.64163" lon="6.79502">
        <ele>294.060791</ele>
        <time>2011-03-30T23:18:15Z</time>
      </trkpt>
      <trkpt lat="43.64131" lon="6.7945">
        <ele>289.911896</ele>
        <time>2011-03-30T23:18:29Z</time>
      </trkpt>
      <trkpt lat="43.64132" lon="6.79438">
        <ele>250.620148</ele>
        <time>2011-03-30T23:18:29Z</time>
      </trkpt>
      <trkpt lat="43.64169" lon="6.7941">
        <ele>253.19281</ele>
        <time>2011-03-30T23:18:29Z</time>
      </trkpt>
      <trkpt lat="43.64204" lon="6.79383">
        <ele>262.062561</ele>
        <time>2011-03-30T23:18:30Z</time>
      </trkpt>
      <trkpt lat="43.64213" lon="6.79375">
        <ele>263.261444</ele>
        <time>2011-03-30T23:18:30Z</time>
      </trkpt>
      <trkpt lat="43.64214" lon="6.79366">
        <ele>259.341614</ele>
        <time>2011-03-30T23:18:30Z</time>
      </trkpt>
      <trkpt lat="43.64216" lon="6.79363">
        <ele>259.716736</ele>
        <time>2011-03-30T23:18:30Z</time>
      </trkpt>
      <trkpt lat="43.64216" lon="6.79315">
        <ele>238.903671</ele>
        <time>2011-03-30T23:18:30Z</time>
      </trkpt>
      <trkpt lat="43.64239" lon="6.79275">
        <ele>231.462326</ele>
        <time>2011-03-30T23:18:30Z</time>
      </trkpt>
      <trkpt lat="43.64243" lon="6.79265">
        <ele>232.412354</ele>
        <time>2011-03-30T23:18:30Z</time>
      </trkpt>
      <trkpt lat="43.64245" lon="6.79222">
        <ele>226.480469</ele>
        <time>2011-03-30T23:18:30Z</time>
      </trkpt>
      <trkpt lat="43.64295" lon="6.79184">
        <ele>221.306641</ele>
        <time>2011-03-30T23:18:30Z</time>
      </trkpt>
      <trkpt lat="43.64333" lon="6.79127">
        <ele>222.547897</ele>
        <time>2011-03-30T23:18:30Z</time>
      </trkpt>
      <trkpt lat="43.64348" lon="6.79117">
        <ele>225.651367</ele>
        <time>2011-03-30T23:18:30Z</time>
      </trkpt>
      <trkpt lat="43.64336" lon="6.79133">
        <ele>227.074997</ele>
        <time>2011-03-30T23:18:30Z</time>
      </trkpt>
      <trkpt lat="43.64334" lon="6.79131">
        <ele>224.951462</ele>
        <time>2011-03-30T23:18:30Z</time>
      </trkpt>
      <trkpt lat="43.64298" lon="6.79185">
        <ele>227.866211</ele>
        <time>2011-03-30T23:18:30Z</time>
      </trkpt>
      <trkpt lat="43.64248" lon="6.79223">
        <ele>215.528763</ele>
        <time>2011-03-30T23:18:30Z</time>
      </trkpt>
      <trkpt lat="43.64245" lon="6.7927">
        <ele>237.207443</ele>
        <time>2011-03-30T23:18:30Z</time>
      </trkpt>
      <trkpt lat="43.64218" lon="6.79317">
        <ele>240.633423</ele>
        <time>2011-03-30T23:18:30Z</time>
      </trkpt>
      <trkpt lat="43.64218" lon="6.79331">
        <ele>246.101135</ele>
        <time>2011-03-30T23:18:30Z</time>
      </trkpt>
      <trkpt lat="43.64218" lon="6.79366">
        <ele>262.258514</ele>
        <time>2011-03-30T23:18:30Z</time>
      </trkpt>
      <trkpt lat="43.64212" lon="6.79385">
        <ele>267.40274</ele>
        <time>2011-03-30T23:18:30Z</time>
      </trkpt>
      <trkpt lat="43.64206" lon="6.79386">
        <ele>264.174957</ele>
        <time>2011-03-30T23:18:30Z</time>
      </trkpt>
      <trkpt lat="43.64202" lon="6.79393">
        <ele>265.133545</ele>
        <time>2011-03-30T23:18:30Z</time>
      </trkpt>
      <trkpt lat="43.64153" lon="6.79416">
        <ele>248.828201</ele>
        <time>2011-03-30T23:18:30Z</time>
      </trkpt>
      <trkpt lat="43.64133" lon="6.79445">
        <ele>259.162628</ele>
        <time>2011-03-30T23:18:30Z</time>
      </trkpt>
      <trkpt lat="43.64148" lon="6.79471">
        <ele>273.992096</ele>
        <time>2011-03-30T23:18:30Z</time>
      </trkpt>
      <trkpt lat="43.64163" lon="6.79493">
        <ele>289.778107</ele>
        <time>2011-03-30T23:18:30Z</time>
      </trkpt>
      <trkpt lat="43.64168" lon="6.79503">
        <ele>296.793457</ele>
        <time>2011-03-30T23:19:02Z</time>
      </trkpt>
      <trkpt lat="43.64159" lon="6.79507">
        <ele>294.046936</ele>
        <time>2011-03-30T23:19:30Z</time>
      </trkpt>
      <trkpt lat="43.64142" lon="6.7951">
        <ele>287.374573</ele>
        <time>2011-03-30T23:20:22Z</time>
      </trkpt>
      <trkpt lat="43.64124" lon="6.79509">
        <ele>278.833801</ele>
        <time>2011-03-30T23:20:54Z</time>
      </trkpt>
      <trkpt lat="43.64106" lon="6.79515">
        <ele>274.358704</ele>
        <time>2011-03-30T23:21:23Z</time>
      </trkpt>
      <trkpt lat="43.64091" lon="6.79527">
        <ele>279.219147</ele>
        <time>2011-03-30T23:21:41Z</time>
      </trkpt>
      <trkpt lat="43.64112" lon="6.79531">
        <ele>282.290314</ele>
        <time>2011-03-30T23:21:57Z</time>
      </trkpt>
      <trkpt lat="43.64115" lon="6.79541">
        <ele>287.549713</ele>
        <time>2011-03-30T23:26:43Z</time>
      </trkpt>
      <trkpt lat="43.64111" lon="6.7955">
        <ele>289.777344</ele>
        <time>2011-03-30T23:36:30Z</time>
      </trkpt>
      <trkpt lat="43.64087" lon="6.79564">
        <ele>289.106079</ele>
        <time>2011-03-31T00:01:50Z</time>
      </trkpt>
      <trkpt lat="43.6409" lon="6.79575">
        <ele>292.402924</ele>
        <time>2011-03-31T00:09:14Z</time>
      </trkpt>
      <trkpt lat="43.64089" lon="6.79577">
        <ele>292.999908</ele>
        <time>2011-03-31T00:19:20Z</time>
      </trkpt>
      <trkpt lat="43.64087" lon="6.79574">
        <ele>291.003479</ele>
        <time>2011-03-31T00:34:18Z</time>
      </trkpt>
      <trkpt lat="43.64067" lon="6.7959">
        <ele>295.802582</ele>
        <time>2011-03-31T02:17:08Z</time>
      </trkpt>
      <trkpt lat="43.64066" lon="6.79603">
        <ele>305.18042</ele>
        <time>2011-03-31T03:12:41Z</time>
      </trkpt>
      <trkpt lat="43.6403" lon="6.79648">
        <ele>309.215027</ele>
        <time>2011-04-01T06:18:03Z</time>
      </trkpt>
      <trkpt lat="43.64037" lon="6.79647">
        <ele>310.399994</ele>
        <time>2011-04-01T12:26:05Z</time>
      </trkpt>
      <trkpt lat="43.64046" lon="6.79647">
        <ele>311.299988</ele>
        <time>2011-04-01T12:26:20Z</time>
      </trkpt>
      <trkpt lat="43.64053" lon="6.7964">
        <ele>311.899994</ele>
        <time>2011-04-01T12:26:34Z</time>
      </trkpt>
      <trkpt lat="43.64054" lon="6.7964">
        <ele>311.799988</ele>
        <time>2011-04-01T12:26:35Z</time>
      </trkpt>
      <trkpt lat="43.6407" lon="6.79632">
        <ele>313.600006</ele>
        <time>2011-04-01T12:26:58Z</time>
      </trkpt>
      <trkpt lat="43.64077" lon="6.79626">
        <ele>315.200012</ele>
        <time>2011-04-01T12:27:11Z</time>
      </trkpt>
      <trkpt lat="43.64085" lon="6.79622">
        <ele>316.5</ele>
        <time>2011-04-01T12:27:23Z</time>
      </trkpt>
      <trkpt lat="43.64094" lon="6.79624">
        <ele>318.100006</ele>
        <time>2011-04-01T12:27:35Z</time>
      </trkpt>
      <trkpt lat="43.64095" lon="6.79624">
        <ele>318.200012</ele>
        <time>2011-04-01T12:27:36Z</time>
      </trkpt>
      <trkpt lat="43.64111" lon="6.79629">
        <ele>320.700012</ele>
        <time>2011-04-01T12:27:56Z</time>
      </trkpt>
      <trkpt lat="43.64119" lon="6.79626">
        <ele>322.700012</ele>
        <time>2011-04-01T12:28:09Z</time>
      </trkpt>
      <trkpt lat="43.64128" lon="6.79624">
        <ele>324.899994</ele>
        <time>2011-04-01T12:28:24Z</time>
      </trkpt>
      <trkpt lat="43.64136" lon="6.79625">
        <ele>326.100006</ele>
        <time>2011-04-01T12:28:36Z</time>
      </trkpt>
      <trkpt lat="43.64137" lon="6.79625">
        <ele>326.200012</ele>
        <time>2011-04-01T12:28:37Z</time>
      </trkpt>
      <trkpt lat="43.64153" lon="6.79626">
        <ele>327.899994</ele>
        <time>2011-04-01T12:29:05Z</time>
      </trkpt>
      <trkpt lat="43.64162" lon="6.79626">
        <ele>329</ele>
        <time>2011-04-01T12:29:18Z</time>
      </trkpt>
      <trkpt lat="43.6417" lon="6.79625">
        <ele>329.200012</ele>
        <time>2011-04-01T12:29:29Z</time>
      </trkpt>
      <trkpt lat="43.64178" lon="6.79625">
        <ele>329.200012</ele>
        <time>2011-04-01T12:29:42Z</time>
      </trkpt>
      <trkpt lat="43.64179" lon="6.79625">
        <ele>329.399994</ele>
        <time>2011-04-01T12:29:43Z</time>
      </trkpt>
      <trkpt lat="43.64195" lon="6.79617">
        <ele>330.899994</ele>
        <time>2011-04-01T12:30:04Z</time>
      </trkpt>
      <trkpt lat="43.64203" lon="6.79618">
        <ele>332.600006</ele>
        <time>2011-04-01T12:30:16Z</time>
      </trkpt>
      <trkpt lat="43.64211" lon="6.79612">
        <ele>334.5</ele>
        <time>2011-04-01T12:30:28Z</time>
      </trkpt>
      <trkpt lat="43.64218" lon="6.79604">
        <ele>335.299988</ele>
        <time>2011-04-01T12:30:39Z</time>
      </trkpt>
      <trkpt lat="43.64224" lon="6.79596">
        <ele>337.100006</ele>
        <time>2011-04-01T12:30:53Z</time>
      </trkpt>
      <trkpt lat="43.64225" lon="6.79595">
        <ele>337</ele>
        <time>2011-04-01T12:30:54Z</time>
      </trkpt>
      <trkpt lat="43.64235" lon="6.79577">
        <ele>339.200012</ele>
        <time>2011-04-01T12:31:18Z</time>
      </trkpt>
      <trkpt lat="43.64238" lon="6.79565">
        <ele>339.799988</ele>
        <time>2011-04-01T12:31:30Z</time>
      </trkpt>
      <trkpt lat="43.64247" lon="6.79562">
        <ele>339.100006</ele>
        <time>2011-04-01T12:31:51Z</time>
      </trkpt>
      <trkpt lat="43.64257" lon="6.79563">
        <ele>339</ele>
        <time>2011-04-01T12:34:14Z</time>
      </trkpt>
      <trkpt lat="43.64258" lon="6.79563">
        <ele>339.100006</ele>
        <time>2011-04-01T12:34:16Z</time>
      </trkpt>
      <trkpt lat="43.64266" lon="6.7956">
        <ele>340.100006</ele>
        <time>2011-04-01T12:36:19Z</time>
      </trkpt>
      <trkpt lat="43.64281" lon="6.79553">
        <ele>340.299988</ele>
        <time>2011-04-01T12:36:37Z</time>
      </trkpt>
      <trkpt lat="43.6429" lon="6.7955">
        <ele>340.299988</ele>
        <time>2011-04-01T12:36:47Z</time>
      </trkpt>
      <trkpt lat="43.64296" lon="6.79542">
        <ele>340.5</ele>
        <time>2011-04-01T12:36:59Z</time>
      </trkpt>
      <trkpt lat="43.64302" lon="6.79535">
        <ele>340.5</ele>
        <time>2011-04-01T12:37:09Z</time>
      </trkpt>
      <trkpt lat="43.64307" lon="6.79526">
        <ele>341.399994</ele>
        <time>2011-04-01T12:37:19Z</time>
      </trkpt>
      <trkpt lat="43.64308" lon="6.79525">
        <ele>341.700012</ele>
        <time>2011-04-01T12:37:20Z</time>
      </trkpt>
      <trkpt lat="43.64309" lon="6.79502">
        <ele>343.299988</ele>
        <time>2011-04-01T12:37:38Z</time>
      </trkpt>
      <trkpt lat="43.64307" lon="6.7949">
        <ele>344.200012</ele>
        <time>2011-04-01T12:37:47Z</time>
      </trkpt>
      <trkpt lat="43.64312" lon="6.79481">
        <ele>345.200012</ele>
        <time>2011-04-01T12:37:57Z</time>
      </trkpt>
      <trkpt lat="43.64321" lon="6.79477">
        <ele>345.5</ele>
        <time>2011-04-01T12:38:08Z</time>
      </trkpt>
      <trkpt lat="43.64328" lon="6.7947">
        <ele>346.399994</ele>
        <time>2011-04-01T12:38:19Z</time>
      </trkpt>
      <trkpt lat="43.64334" lon="6.79461">
        <ele>348.100006</ele>
        <time>2011-04-01T12:38:31Z</time>
      </trkpt>
      <trkpt lat="43.64334" lon="6.7946">
        <ele>348.100006</ele>
        <time>2011-04-01T12:38:32Z</time>
      </trkpt>
      <trkpt lat="43.64347" lon="6.79447">
        <ele>350.799988</ele>
        <time>2011-04-01T12:39:02Z</time>
      </trkpt>
      <trkpt lat="43.64355" lon="6.79441">
        <ele>352.799988</ele>
        <time>2011-04-01T12:39:14Z</time>
      </trkpt>
      <trkpt lat="43.64363" lon="6.79435">
        <ele>354.5</ele>
        <time>2011-04-01T12:39:27Z</time>
      </trkpt>
      <trkpt lat="43.64369" lon="6.79427">
        <ele>355.899994</ele>
        <time>2011-04-01T12:39:39Z</time>
      </trkpt>
      <trkpt lat="43.6437" lon="6.79426">
        <ele>356.100006</ele>
        <time>2011-04-01T12:39:40Z</time>
      </trkpt>
      <trkpt lat="43.64384" lon="6.79415">
        <ele>357.799988</ele>
        <time>2011-04-01T12:40:03Z</time>
      </trkpt>
      <trkpt lat="43.64392" lon="6.79412">
        <ele>359.600006</ele>
        <time>2011-04-01T12:40:21Z</time>
      </trkpt>
      <trkpt lat="43.644" lon="6.79411">
        <ele>361.299988</ele>
        <time>2011-04-01T12:40:35Z</time>
      </trkpt>
      <trkpt lat="43.64409" lon="6.79406">
        <ele>363.899994</ele>
        <time>2011-04-01T12:40:54Z</time>
      </trkpt>
      <trkpt lat="43.64409" lon="6.79405">
        <ele>363.899994</ele>
        <time>2011-04-01T12:40:55Z</time>
      </trkpt>
      <trkpt lat="43.64425" lon="6.79402">
        <ele>366.899994</ele>
        <time>2011-04-01T12:41:21Z</time>
      </trkpt>
      <trkpt lat="43.64434" lon="6.79404">
        <ele>368.200012</ele>
        <time>2011-04-01T12:41:34Z</time>
      </trkpt>
      <trkpt lat="43.64442" lon="6.79407">
        <ele>369.700012</ele>
        <time>2011-04-01T12:41:46Z</time>
      </trkpt>
      <trkpt lat="43.6445" lon="6.79404">
        <ele>371.5</ele>
        <time>2011-04-01T12:42:02Z</time>
      </trkpt>
      <trkpt lat="43.64451" lon="6.79403">
        <ele>371.600006</ele>
        <time>2011-04-01T12:42:03Z</time>
      </trkpt>
      <trkpt lat="43.64465" lon="6.79391">
        <ele>372.399994</ele>
        <time>2011-04-01T12:42:33Z</time>
      </trkpt>
      <trkpt lat="43.64469" lon="6.79381">
        <ele>374</ele>
        <time>2011-04-01T12:44:26Z</time>
      </trkpt>
      <trkpt lat="43.64469" lon="6.7938">
        <ele>374</ele>
        <time>2011-04-01T12:44:27Z</time>
      </trkpt>
      <trkpt lat="43.64471" lon="6.79379">
        <ele>372.5</ele>
        <time>2011-04-01T12:48:28Z</time>
      </trkpt>
      <trkpt lat="43.64471" lon="6.79379">
        <ele>372.600006</ele>
        <time>2011-04-01T12:48:29Z</time>
      </trkpt>
      <trkpt lat="43.64479" lon="6.7936">
        <ele>372.700012</ele>
        <time>2011-04-01T12:48:44Z</time>
      </trkpt>
      <trkpt lat="43.64485" lon="6.79351">
        <ele>373.5</ele>
        <time>2011-04-01T12:48:54Z</time>
      </trkpt>
      <trkpt lat="43.6449" lon="6.79342">
        <ele>373.899994</ele>
        <time>2011-04-01T12:49:03Z</time>
      </trkpt>
      <trkpt lat="43.64492" lon="6.79331">
        <ele>374.5</ele>
        <time>2011-04-01T12:49:13Z</time>
      </trkpt>
      <trkpt lat="43.64497" lon="6.79321">
        <ele>375.5</ele>
        <time>2011-04-01T12:49:24Z</time>
      </trkpt>
      <trkpt lat="43.64503" lon="6.79312">
        <ele>377.200012</ele>
        <time>2011-04-01T12:49:37Z</time>
      </trkpt>
      <trkpt lat="43.64503" lon="6.79312">
        <ele>377.5</ele>
        <time>2011-04-01T12:49:38Z</time>
      </trkpt>
      <trkpt lat="43.64515" lon="6.79296">
        <ele>380.700012</ele>
        <time>2011-04-01T12:50:02Z</time>
      </trkpt>
      <trkpt lat="43.64519" lon="6.79286">
        <ele>382.399994</ele>
        <time>2011-04-01T12:50:13Z</time>
      </trkpt>
      <trkpt lat="43.64526" lon="6.79278">
        <ele>384.399994</ele>
        <time>2011-04-01T12:50:26Z</time>
      </trkpt>
      <trkpt lat="43.64533" lon="6.79273">
        <ele>386.100006</ele>
        <time>2011-04-01T12:50:41Z</time>
      </trkpt>
      <trkpt lat="43.64534" lon="6.79273">
        <ele>386.299988</ele>
        <time>2011-04-01T12:50:42Z</time>
      </trkpt>
      <trkpt lat="43.64549" lon="6.79265">
        <ele>389.299988</ele>
        <time>2011-04-01T12:51:07Z</time>
      </trkpt>
      <trkpt lat="43.64558" lon="6.79263">
        <ele>390.799988</ele>
        <time>2011-04-01T12:51:21Z</time>
      </trkpt>
      <trkpt lat="43.64567" lon="6.7926">
        <ele>393</ele>
        <time>2011-04-01T12:51:36Z</time>
      </trkpt>
      <trkpt lat="43.64575" lon="6.79257">
        <ele>395.299988</ele>
        <time>2011-04-01T12:51:50Z</time>
      </trkpt>
      <trkpt lat="43.64575" lon="6.79257">
        <ele>395.5</ele>
        <time>2011-04-01T12:51:51Z</time>
      </trkpt>
      <trkpt lat="43.64587" lon="6.79242">
        <ele>398.399994</ele>
        <time>2011-04-01T12:52:14Z</time>
      </trkpt>
      <trkpt lat="43.64596" lon="6.79239">
        <ele>400.5</ele>
        <time>2011-04-01T12:52:28Z</time>
      </trkpt>
      <trkpt lat="43.64604" lon="6.79236">
        <ele>403.399994</ele>
        <time>2011-04-01T12:52:42Z</time>
      </trkpt>
      <trkpt lat="43.64613" lon="6.79232">
        <ele>406.100006</ele>
        <time>2011-04-01T12:52:57Z</time>
      </trkpt>
      <trkpt lat="43.64613" lon="6.79231">
        <ele>406.100006</ele>
        <time>2011-04-01T12:52:58Z</time>
      </trkpt>
      <trkpt lat="43.6463" lon="6.79229">
        <ele>410.700012</ele>
        <time>2011-04-01T12:53:58Z</time>
      </trkpt>
      <trkpt lat="43.6463" lon="6.79229">
        <ele>410.700012</ele>
        <time>2011-04-01T12:53:59Z</time>
      </trkpt>
      <trkpt lat="43.64637" lon="6.79221">
        <ele>410.299988</ele>
        <time>2011-04-01T12:57:32Z</time>
      </trkpt>
      <trkpt lat="43.64654" lon="6.79222">
        <ele>415.799988</ele>
        <time>2011-04-01T12:58:15Z</time>
      </trkpt>
      <trkpt lat="43.64662" lon="6.7922">
        <ele>417.799988</ele>
        <time>2011-04-01T12:58:30Z</time>
      </trkpt>
      <trkpt lat="43.6467" lon="6.79218">
        <ele>419.700012</ele>
        <time>2011-04-01T12:58:46Z</time>
      </trkpt>
      <trkpt lat="43.64671" lon="6.79218">
        <ele>419.799988</ele>
        <time>2011-04-01T12:58:47Z</time>
      </trkpt>
      <trkpt lat="43.64688" lon="6.7922">
        <ele>423.200012</ele>
        <time>2011-04-01T12:59:16Z</time>
      </trkpt>
      <trkpt lat="43.64695" lon="6.79225">
        <ele>425</ele>
        <time>2011-04-01T12:59:33Z</time>
      </trkpt>
      <trkpt lat="43.64704" lon="6.79225">
        <ele>426.200012</ele>
        <time>2011-04-01T12:59:45Z</time>
      </trkpt>
      <trkpt lat="43.64712" lon="6.79226">
        <ele>427.100006</ele>
        <time>2011-04-01T12:59:59Z</time>
      </trkpt>
      <trkpt lat="43.64713" lon="6.79226">
        <ele>427.100006</ele>
        <time>2011-04-01T13:00:00Z</time>
      </trkpt>
      <trkpt lat="43.64729" lon="6.79233">
        <ele>430.299988</ele>
        <time>2011-04-01T13:00:29Z</time>
      </trkpt>
      <trkpt lat="43.64737" lon="6.79238">
        <ele>431.799988</ele>
        <time>2011-04-01T13:00:45Z</time>
      </trkpt>
      <trkpt lat="43.64746" lon="6.79242">
        <ele>432.899994</ele>
        <time>2011-04-01T13:01:00Z</time>
      </trkpt>
      <trkpt lat="43.64746" lon="6.79243">
        <ele>432.899994</ele>
        <time>2011-04-01T13:01:01Z</time>
      </trkpt>
      <trkpt lat="43.64761" lon="6.79255">
        <ele>437.200012</ele>
        <time>2011-04-01T13:01:34Z</time>
      </trkpt>
      <trkpt lat="43.64769" lon="6.79259">
        <ele>439.200012</ele>
        <time>2011-04-01T13:01:49Z</time>
      </trkpt>
      <trkpt lat="43.64777" lon="6.79262">
        <ele>440.700012</ele>
        <time>2011-04-01T13:02:04Z</time>
      </trkpt>
      <trkpt lat="43.64778" lon="6.79262">
        <ele>440.899994</ele>
        <time>2011-04-01T13:02:05Z</time>
      </trkpt>
      <trkpt lat="43.64794" lon="6.79264">
        <ele>445.399994</ele>
        <time>2011-04-01T13:02:39Z</time>
      </trkpt>
      <trkpt lat="43.64803" lon="6.79265">
        <ele>447.200012</ele>
        <time>2011-04-01T13:02:56Z</time>
      </trkpt>
      <trkpt lat="43.64811" lon="6.79266">
        <ele>449.600006</ele>
        <time>2011-04-01T13:03:12Z</time>
      </trkpt>
      <trkpt lat="43.64812" lon="6.79266">
        <ele>449.5</ele>
        <time>2011-04-01T13:03:13Z</time>
      </trkpt>
      <trkpt lat="43.64799" lon="6.79281">
        <ele>453.700012</ele>
        <time>2011-04-01T13:06:12Z</time>
      </trkpt>
      <trkpt lat="43.64798" lon="6.79281">
        <ele>453.799988</ele>
        <time>2011-04-01T13:06:13Z</time>
      </trkpt>
      <trkpt lat="43.64798" lon="6.79304">
        <ele>461.899994</ele>
        <time>2011-04-01T13:07:30Z</time>
      </trkpt>
      <trkpt lat="43.64798" lon="6.79305">
        <ele>462.100006</ele>
        <time>2011-04-01T13:07:31Z</time>
      </trkpt>
      <trkpt lat="43.648" lon="6.79315">
        <ele>468.899994</ele>
        <time>2011-04-01T13:08:27Z</time>
      </trkpt>
      <trkpt lat="43.64809" lon="6.79314">
        <ele>470.700012</ele>
        <time>2011-04-01T13:08:46Z</time>
      </trkpt>
      <trkpt lat="43.64809" lon="6.79314">
        <ele>471</ele>
        <time>2011-04-01T13:08:47Z</time>
      </trkpt>
      <trkpt lat="43.64826" lon="6.7931">
        <ele>476.5</ele>
        <time>2011-04-01T13:09:42Z</time>
      </trkpt>
      <trkpt lat="43.64834" lon="6.79304">
        <ele>478.100006</ele>
        <time>2011-04-01T13:09:59Z</time>
      </trkpt>
      <trkpt lat="43.64834" lon="6.79304">
        <ele>478.100006</ele>
        <time>2011-04-01T13:10:00Z</time>
      </trkpt>
      <trkpt lat="43.6485" lon="6.79311">
        <ele>482.799988</ele>
        <time>2011-04-01T13:10:34Z</time>
      </trkpt>
      <trkpt lat="43.64858" lon="6.79307">
        <ele>485.200012</ele>
        <time>2011-04-01T13:10:57Z</time>
      </trkpt>
      <trkpt lat="43.64855" lon="6.79318">
        <ele>489.700012</ele>
        <time>2011-04-01T13:11:23Z</time>
      </trkpt>
      <trkpt lat="43.64855" lon="6.79319">
        <ele>489.899994</ele>
        <time>2011-04-01T13:11:24Z</time>
      </trkpt>
      <trkpt lat="43.64867" lon="6.79336">
        <ele>494.399994</ele>
        <time>2011-04-01T13:16:13Z</time>
      </trkpt>
      <trkpt lat="43.64866" lon="6.79337">
        <ele>494.399994</ele>
        <time>2011-04-01T13:16:14Z</time>
      </trkpt>
      <trkpt lat="43.6488" lon="6.79324">
        <ele>495</ele>
        <time>2011-04-01T13:17:12Z</time>
      </trkpt>
      <trkpt lat="43.64886" lon="6.79315">
        <ele>495.299988</ele>
        <time>2011-04-01T13:17:20Z</time>
      </trkpt>
      <trkpt lat="43.64887" lon="6.79314">
        <ele>495.200012</ele>
        <time>2011-04-01T13:17:21Z</time>
      </trkpt>
      <trkpt lat="43.64901" lon="6.79302">
        <ele>495.5</ele>
        <time>2011-04-01T13:17:42Z</time>
      </trkpt>
      <trkpt lat="43.64909" lon="6.79296">
        <ele>495.5</ele>
        <time>2011-04-01T13:17:56Z</time>
      </trkpt>
      <trkpt lat="43.64915" lon="6.79287">
        <ele>494.600006</ele>
        <time>2011-04-01T13:18:10Z</time>
      </trkpt>
      <trkpt lat="43.64923" lon="6.79284">
        <ele>495.299988</ele>
        <time>2011-04-01T13:18:21Z</time>
      </trkpt>
      <trkpt lat="43.64924" lon="6.79284">
        <ele>495.399994</ele>
        <time>2011-04-01T13:18:22Z</time>
      </trkpt>
      <trkpt lat="43.64938" lon="6.79297">
        <ele>496.399994</ele>
        <time>2011-04-01T13:18:53Z</time>
      </trkpt>
      <trkpt lat="43.64943" lon="6.79288">
        <ele>497.100006</ele>
        <time>2011-04-01T13:19:41Z</time>
      </trkpt>
      <trkpt lat="43.64943" lon="6.79287">
        <ele>496.899994</ele>
        <time>2011-04-01T13:19:42Z</time>
      </trkpt>
    </trkseg>
  </trk>
</gpx>